NOAA Web Site Link Tides and Currents Home Page Transparent placeholder image

PORTS® Data Listing: 8637689 Yorktown USCG Training Center, VA

CO-OPS RAW PORTS DATA

************************      PRELIMINARY DATA      ************************** 

     THIS RAW DATA HAS NOT BEEN SUBJECT TO THE NATIONAL OCEAN SERVICE'S        
     QUALITY CONTROL OR QUALITY ASSURANCE PROCEDURES AND DOES NOT MEET         
     THE CRITERIA AND STANDARDS OF OFFICIAL NATIONAL OCEAN SERVICE             
     DATA.  IT IS RELEASED FOR LIMITED PUBLIC USE AS PRELIMINARY DATA TO       
     BE USED ONLY WITH APPROPRIATE CAUTION.                                    

************************      PRELIMINARY DATA      ************************** 


       CD   -   Calendar date
       T    -   Time
       TZ   -   Timezone
       PW   -   Predicted water level (feet above MLLW)
       OW   -   Observed water level (feet above MLLW)
       WS   -   Wind speed (knots)
       WD   -   Wind direction (degrees true)
       WG   -   Wind gust (knots)
       AT   -   Air temperature (degrees farenheit)
       WT   -   Water temperature (degrees farenheit)
       AP   -   Air pressure (millibars)
       SA   -   Salinty (PSU - Practical Salinity Units)
       SG   -   Specific gravity
       RH   -   Relative humidity
       AG   -   Air gap (feet)
       VI   -   Visibility (nautical miles)

       ** NOTE **
       A variable that has its data fields filled with "9"s, indicates that
       data was not collected for that sample period.
       **********


STATION NAME: Yorktown USCG Training Center (8637689)
****************************************************************************************************
    CD       T    TZ    PW     OW    WS   WD   WG    AT    WT    AP    SA    SG     RH    AG   VI
****************************************************************************************************
2019/06/17 02:06 EDT    0.80   0.75   10  222   14  78.8  74.8 1013.8 12.3  1.008 -99.9 -99.99 -9.99
2019/06/17 02:12 EDT    0.74   0.69   10  238   15  78.8  74.8 1013.9 12.2  1.007 -99.9 -99.99 -9.99
2019/06/17 02:18 EDT    0.69   0.64   11  232   14  79.0  75.0 1013.9 12.2  1.007 -99.9 -99.99 -9.99
2019/06/17 02:24 EDT    0.63   0.58   11  234   14  79.0  75.0 1013.8 12.2  1.007 -99.9 -99.99 -9.99
2019/06/17 02:30 EDT    0.58   0.52   10  233   13  78.8  75.0 1013.8 12.1  1.007 -99.9 -99.99 -9.99
2019/06/17 02:36 EDT    0.53   0.47    9  228   12  78.8  75.0 1013.8 12.2  1.007 -99.9 -99.99 -9.99
2019/06/17 02:42 EDT    0.49   0.41    9  236   12  78.6  74.8 1013.8 12.3  1.007 -99.9 -99.99 -9.99
2019/06/17 02:48 EDT    0.45   0.35    9  224   13  78.3  74.8 1013.7 12.3  1.008 -99.9 -99.99 -9.99
2019/06/17 02:54 EDT    0.40   0.31    9  227   12  78.1  75.0 1013.7 12.2  1.007 -99.9 -99.99 -9.99
2019/06/17 03:00 EDT    0.37   0.25    9  225   12  78.1  75.0 1013.7 12.1  1.007 -99.9 -99.99 -9.99
2019/06/17 03:06 EDT    0.33   0.20    9  222   13  77.9  74.8 1013.6 12.2  1.007 -99.9 -99.99 -9.99
2019/06/17 03:12 EDT    0.30   0.15   10  219   13  77.5  74.8 1013.5 12.3  1.007 -99.9 -99.99 -9.99
2019/06/17 03:18 EDT    0.27   0.12    9  216   12  77.2  74.8 1013.5 12.3  1.007 -99.9 -99.99 -9.99
2019/06/17 03:24 EDT    0.24   0.08    8  218   11  77.0  74.8 1013.4 12.2  1.007 -99.9 -99.99 -9.99
2019/06/17 03:30 EDT    0.21   0.06    9  221   12  76.8  74.8 1013.4 12.2  1.007 -99.9 -99.99 -9.99
2019/06/17 03:36 EDT    0.19   0.03    9  219   14  76.8  74.8 1013.4 12.2  1.007 -99.9 -99.99 -9.99
2019/06/17 03:42 EDT    0.17   0.00    9  210   12  76.6  74.8 1013.4 12.2  1.007 -99.9 -99.99 -9.99
2019/06/17 03:48 EDT    0.15  -0.01    8  213   13  76.5  74.8 1013.3 12.2  1.007 -99.9 -99.99 -9.99
2019/06/17 03:54 EDT    0.14  -0.02    7  220   10  76.1  74.8 1013.4 12.2  1.007 -99.9 -99.99 -9.99
2019/06/17 04:00 EDT    0.13  -0.04    8  221   10  75.9  75.0 1013.5 11.8  1.007 -99.9 -99.99 -9.99
2019/06/17 04:06 EDT    0.12  -0.05    8  209   10  75.9  75.0 1013.5 11.8  1.007 -99.9 -99.99 -9.99
2019/06/17 04:12 EDT    0.11  -0.06    8  215   11  75.7  75.0 1013.4 11.9  1.007 -99.9 -99.99 -9.99
2019/06/17 04:18 EDT    0.11  -0.06    9  224   11  75.7  75.0 1013.5 11.9  1.007 -99.9 -99.99 -9.99
2019/06/17 04:24 EDT    0.11  -0.05    9  226   12  75.9  75.0 1013.5 11.9  1.007 -99.9 -99.99 -9.99
2019/06/17 04:30 EDT    0.11  -0.04    9  223   12  75.7  75.0 1013.5 11.8  1.007 -99.9 -99.99 -9.99
2019/06/17 04:36 EDT    0.12  -0.02   10  219   12  75.6  75.0 1013.4 11.9  1.007 -99.9 -99.99 -9.99
2019/06/17 04:42 EDT    0.13  -0.01   10  219   13  75.7  75.0 1013.4 11.9  1.007 -99.9 -99.99 -9.99
2019/06/17 04:48 EDT    0.14   0.01   10  223   13  75.9  75.0 1013.6 11.9  1.007 -99.9 -99.99 -9.99
2019/06/17 04:54 EDT    0.15   0.04   11  219   15  75.9  75.0 1013.6 11.9  1.007 -99.9 -99.99 -9.99
2019/06/17 05:00 EDT    0.17   0.06   10  214   14  75.7  75.0 1013.7 11.9  1.007 -99.9 -99.99 -9.99
2019/06/17 05:06 EDT    0.19   0.08   11  214   14  75.6  75.0 1013.7 11.9  1.007 -99.9 -99.99 -9.99
2019/06/17 05:12 EDT    0.22   0.10   12  210   15  75.4  75.0 1013.8 11.9  1.007 -99.9 -99.99 -9.99
2019/06/17 05:18 EDT    0.24   0.13   10  215   13  75.2  75.0 1013.9 11.8  1.007 -99.9 -99.99 -9.99
2019/06/17 05:24 EDT    0.27   0.15   10  219   12  75.2  75.0 1014.0 11.9  1.007 -99.9 -99.99 -9.99
2019/06/17 05:30 EDT    0.31   0.18   10  216   13  75.0  75.0 1014.0 11.9  1.007 -99.9 -99.99 -9.99
2019/06/17 05:36 EDT    0.34   0.21   10  224   13  74.8  75.0 1014.1 11.9  1.007 -99.9 -99.99 -9.99
2019/06/17 05:42 EDT    0.38   0.24   11  218   13  74.8  75.0 1014.1 11.9  1.007 -99.9 -99.99 -9.99
2019/06/17 05:48 EDT    0.42   0.27    9  213   13  74.8  75.0 1014.1 11.9  1.007 -99.9 -99.99 -9.99
2019/06/17 05:54 EDT    0.46   0.31   11  220   15  74.8  75.0 1014.1 11.9  1.007 -99.9 -99.99 -9.99
2019/06/17 06:00 EDT    0.51   0.34   11  215   14  74.8  75.0 1014.1 11.9  1.007 -99.9 -99.99 -9.99
2019/06/17 06:06 EDT    0.56   0.39   11  215   14  74.8  75.0 1014.2 11.8  1.007 -99.9 -99.99 -9.99
2019/06/17 06:12 EDT    0.61   0.43   11  218   13  74.8  75.0 1014.3 11.8  1.007 -99.9 -99.99 -9.99
2019/06/17 06:18 EDT    0.66   0.48   12  216   15  74.8  75.0 1014.4 11.8  1.007 -99.9 -99.99 -9.99
2019/06/17 06:24 EDT    0.72   0.53   12  216   17  75.0  75.0 1014.4 11.9  1.007 -99.9 -99.99 -9.99
2019/06/17 06:30 EDT    0.77   0.57   11  217   16  75.0  75.0 1014.4 11.8  1.007 -99.9 -99.99 -9.99
2019/06/17 06:36 EDT    0.83   0.63   13  217   15  75.0  75.0 1014.4 11.9  1.007 -99.9 -99.99 -9.99
2019/06/17 06:42 EDT    0.89   0.69   12  214   15  75.0  74.8 1014.5 11.9  1.007 -99.9 -99.99 -9.99
2019/06/17 06:48 EDT    0.95   0.74   12  220   16  75.0  74.8 1014.6 12.0  1.007 -99.9 -99.99 -9.99
2019/06/17 06:54 EDT    1.01   0.79   12  221   15  75.2  74.8 1014.7 12.1  1.007 -99.9 -99.99 -9.99
2019/06/17 07:00 EDT    1.08   0.85   13  223   17  75.2  74.8 1014.7 12.1  1.007 -99.9 -99.99 -9.99
2019/06/17 07:06 EDT    1.14   0.92   12  226   14  75.4  74.8 1014.7 12.1  1.007 -99.9 -99.99 -9.99
2019/06/17 07:12 EDT    1.21   0.98   13  223   16  75.7  74.8 1014.7 12.1  1.007 -99.9 -99.99 -9.99
2019/06/17 07:18 EDT    1.27   1.04   13  225   16  75.7  74.8 1014.8 12.1  1.007 -99.9 -99.99 -9.99
2019/06/17 07:24 EDT    1.34   1.10   10  224   16  75.9  74.8 1014.9 12.1  1.007 -99.9 -99.99 -9.99
2019/06/17 07:30 EDT    1.40   1.17   10  220   16  76.1  74.8 1014.9 12.1  1.007 -99.9 -99.99 -9.99
2019/06/17 07:36 EDT    1.46   1.24   10  219   14  76.3  74.8 1015.0 12.1  1.007 -99.9 -99.99 -9.99
2019/06/17 07:42 EDT    1.53   1.32   12  227   15  76.3  74.8 1015.0 12.1  1.007 -99.9 -99.99 -9.99
2019/06/17 07:48 EDT    1.59   1.45   10  210   16  76.5  74.8 1014.9 12.1  1.007 -99.9 -99.99 -9.99
2019/06/17 07:54 EDT    1.65   1.46   10  216   14  76.5  74.8 1014.9 12.1  1.007 -99.9 -99.99 -9.99
2019/06/17 08:00 EDT    1.71   1.54   11  208   16  76.6  74.8 1014.9 12.1  1.007 -99.9 -99.99 -9.99
2019/06/17 08:06 EDT    1.77   1.61   10  219   17  76.8  74.8 1015.1 12.1  1.007 -99.9 -99.99 -9.99
2019/06/17 08:12 EDT    1.82   1.68    9  228   12  77.0  74.8 1015.2 12.1  1.007 -99.9 -99.99 -9.99
2019/06/17 08:18 EDT    1.88   1.74   10  228   16  77.2  74.7 1015.3 12.1  1.007 -99.9 -99.99 -9.99
2019/06/17 08:24 EDT    1.93   1.79   13  228   17  77.2  74.7 1015.2 12.1  1.007 -99.9 -99.99 -9.99
2019/06/17 08:30 EDT    1.98   1.85   11  226   14  77.4  74.7 1015.2 12.2  1.007 -99.9 -99.99 -9.99
2019/06/17 08:36 EDT    2.03   1.90   13  219   16  77.5  74.8 1015.2 12.1  1.007 -99.9 -99.99 -9.99
2019/06/17 08:42 EDT    2.07   1.95   10  227   15  77.9  74.8 1015.2 12.1  1.007 -99.9 -99.99 -9.99
2019/06/17 08:48 EDT    2.11   2.01    9  233   14  78.1  74.8 1015.4 12.1  1.007 -99.9 -99.99 -9.99
2019/06/17 08:54 EDT    2.15   2.06    8  247   13  78.1  74.8 1015.5 12.1  1.007 -99.9 -99.99 -9.99
2019/06/17 09:00 EDT    2.18   2.11    6  243   10  78.4  74.8 1015.5 12.1  1.007 -99.9 -99.99 -9.99
2019/06/17 09:06 EDT    2.22   2.16   10  259   14  78.6  74.8 1015.4 12.1  1.007 -99.9 -99.99 -9.99
2019/06/17 09:12 EDT    2.24   2.20    8  254   11  78.8  74.8 1015.4 12.1  1.007 -99.9 -99.99 -9.99
2019/06/17 09:18 EDT    2.27   2.24   10  245   16  79.0  74.8 1015.5 12.1  1.007 -99.9 -99.99 -9.99
2019/06/17 09:24 EDT    2.29   2.27    8  248   17  79.0  74.8 1015.5 12.1  1.007 -99.9 -99.99 -9.99
2019/06/17 09:30 EDT    2.31   2.31   12  253   17  79.2  75.0 1015.4 12.1  1.007 -99.9 -99.99 -9.99
2019/06/17 09:36 EDT    2.33   2.34   10  256   16  79.3  75.0 1015.4 12.1  1.007 -99.9 -99.99 -9.99
2019/06/17 09:42 EDT    2.34   2.38   10  242   14  79.5  75.0 1015.5 12.1  1.007 -99.9 -99.99 -9.99
2019/06/17 09:48 EDT    2.35   2.39   11  242   14  79.9  75.0 1015.5 12.1  1.007 -99.9 -99.99 -9.99
2019/06/17 09:54 EDT    2.35   2.41    9  245   14  80.1  75.0 1015.5 12.1  1.007 -99.9 -99.99 -9.99
2019/06/17 10:00 EDT    2.36   2.42    8  250   11  80.1  75.0 1015.5 12.1  1.007 -99.9 -99.99 -9.99
2019/06/17 10:06 EDT    2.36   2.43    8  242   10  80.4  75.0 1015.4 12.1  1.007 -99.9 -99.99 -9.99
2019/06/17 10:12 EDT    2.35   2.44   10  251   14  80.2  75.0 1015.4 12.1  1.007 -99.9 -99.99 -9.99
2019/06/17 10:18 EDT    2.35   2.43   10  222   12  80.6  74.8 1015.4 12.2  1.007 -99.9 -99.99 -9.99
2019/06/17 10:24 EDT    2.34   2.43    8  238   11  80.8  74.8 1015.6 12.2  1.007 -99.9 -99.99 -9.99
2019/06/17 10:30 EDT    2.33   2.43    6  251   10  81.0  74.8 1015.6 12.2  1.007 -99.9 -99.99 -9.99
2019/06/17 10:36 EDT    2.31   2.42    9  225   12  81.1  74.8 1015.5 12.2  1.007 -99.9 -99.99 -9.99
2019/06/17 10:42 EDT    2.29   2.40    8  219   11  81.3  74.8 1015.6 12.2  1.007 -99.9 -99.99 -9.99
2019/06/17 10:48 EDT    2.27   2.39    6  227   11  81.7  74.8 1015.6 12.2  1.007 -99.9 -99.99 -9.99
2019/06/17 10:54 EDT    2.25   2.36    4  250    6  82.0  74.8 1015.7 12.2  1.007 -99.9 -99.99 -9.99
2019/06/17 11:00 EDT    2.22   2.34    7  252   10  82.2  74.8 1015.7 12.2  1.007 -99.9 -99.99 -9.99
2019/06/17 11:06 EDT    2.20   2.31    5  209    8  82.6  74.8 1015.7 12.2  1.007 -99.9 -99.99 -9.99
2019/06/17 11:12 EDT    2.17   2.28    6  215    9  82.8  74.7 1015.8 12.2  1.007 -99.9 -99.99 -9.99
2019/06/17 11:18 EDT    2.13   2.25    1  217    8  83.3  74.7 1015.9 12.3  1.007 -99.9 -99.99 -9.99
2019/06/17 11:24 EDT    2.10   2.21    4  237    6  83.3  74.8 1015.9 12.2  1.007 -99.9 -99.99 -9.99
2019/06/17 11:30 EDT    2.06   2.18    9  235   12  82.8  74.8 1015.8 12.2  1.007 -99.9 -99.99 -9.99
2019/06/17 11:36 EDT    2.02   2.14    7  229   10  83.1  75.6 1015.7 12.1  1.007 -99.9 -99.99 -9.99
2019/06/17 11:42 EDT    1.98   2.09    6  221    9  83.3  75.9 1015.8 12.1  1.007 -99.9 -99.99 -9.99
2019/06/17 11:48 EDT    1.94   2.05    9  242   11  83.5  75.6 1015.8 12.2  1.007 -99.9 -99.99 -9.99
2019/06/17 11:54 EDT    1.89   2.02    8  257   11  83.7  75.6 1015.8 12.1  1.007 -99.9 -99.99 -9.99
2019/06/17 12:00 EDT    1.85   1.99    8  227   11  83.8  75.2 1015.9 12.2  1.007 -99.9 -99.99 -9.99
2019/06/17 12:06 EDT    1.80   1.94    8  240   10  83.8  75.4 1015.9 12.2  1.007 -99.9 -99.99 -9.99
2019/06/17 12:12 EDT    1.75   1.89    8  235   10  84.0  75.6 1015.9 12.1  1.007 -99.9 -99.99 -9.99
2019/06/17 12:18 EDT    1.70   1.85    5  229   10  84.4  75.2 1015.9 12.2  1.007 -99.9 -99.99 -9.99
2019/06/17 12:24 EDT    1.65   1.80    7  249   10  84.4  74.7 1015.8 12.3  1.008 -99.9 -99.99 -9.99
2019/06/17 12:30 EDT    1.60   1.75    4  252    8  84.7  74.7 1015.8 12.3  1.008 -99.9 -99.99 -9.99
2019/06/17 12:36 EDT    1.55   1.71    6  247    9  84.7  74.8 1015.9 12.3  1.007 -99.9 -99.99 -9.99
2019/06/17 12:42 EDT    1.49   1.65    6  252    9  84.9  74.8 1015.9 12.3  1.007 -99.9 -99.99 -9.99
2019/06/17 12:48 EDT    1.44   1.60    6  248   10  85.1  75.0 1015.9 12.3  1.007 -99.9 -99.99 -9.99
2019/06/17 12:54 EDT    1.38   1.55    5  254    9  85.5  74.8 1015.9 12.3  1.007 -99.9 -99.99 -9.99
2019/06/17 13:00 EDT    1.33   1.50    5  247    8  85.5  75.0 1015.9 12.3  1.007 -99.9 -99.99 -9.99
2019/06/17 13:06 EDT    1.27   1.45    6  222    9  85.6  75.0 1015.8 12.2  1.007 -99.9 -99.99 -9.99
2019/06/17 13:12 EDT    1.22   1.39    3  239   10  86.2  74.8 1015.7 12.2  1.007 -99.9 -99.99 -9.99
2019/06/17 13:18 EDT    1.16   1.34    7  227   10  85.8  74.8 1015.6 12.3  1.007 -99.9 -99.99 -9.99
2019/06/17 13:24 EDT    1.11   1.28    5  241    7  86.0  74.8 1015.5 12.3  1.007 -99.9 -99.99 -9.99
2019/06/17 13:30 EDT    1.05   1.22    6  246    8  86.0  75.2 1015.5 12.2  1.007 -99.9 -99.99 -9.99
2019/06/17 13:36 EDT    1.00   1.16    5  204    8  86.5  75.7 1015.5 12.1  1.007 -99.9 -99.99 -9.99
2019/06/17 13:42 EDT    0.94   1.10    5  201    7  86.7  75.7 1015.5 12.1  1.007 -99.9 -99.99 -9.99
2019/06/17 13:48 EDT    0.89   1.03    6  240    9  86.7  76.1 1015.5 12.1  1.007 -99.9 -99.99 -9.99
2019/06/17 13:54 EDT    0.84   0.97    8  234   10  86.7  75.9 1015.4 12.1  1.007 -99.9 -99.99 -9.99
2019/06/17 14:00 EDT    0.79   0.92    5  236    7  86.5  76.6 1015.4 12.1  1.007 -99.9 -99.99 -9.99
2019/06/17 14:06 EDT    0.74   0.86    5  250    8  87.1  76.6 1015.4 12.1  1.007 -99.9 -99.99 -9.99
2019/06/17 14:12 EDT    0.69   0.80    6  243   10  87.1  75.7 1015.3 12.2  1.007 -99.9 -99.99 -9.99
2019/06/17 14:18 EDT    0.65   0.75    7  248    9  87.3  75.6 1015.3 12.2  1.007 -99.9 -99.99 -9.99
2019/06/17 14:24 EDT    0.60   0.70    7  271    9  87.1  75.6 1015.2 12.2  1.007 -99.9 -99.99 -9.99
2019/06/17 14:30 EDT    0.56   0.65    6  263    8  86.5  76.1 1015.2 12.1  1.007 -99.9 -99.99 -9.99
2019/06/17 14:36 EDT    0.52   0.60    6  225   10  87.4  76.1 1015.2 12.0  1.007 -99.9 -99.99 -9.99
2019/06/17 14:42 EDT    0.48   0.56    5  242    7  87.8  76.5 1015.2 12.0  1.007 -99.9 -99.99 -9.99
2019/06/17 14:48 EDT    0.44   0.52    6  214    9  87.8  76.5 1015.1 11.9  1.007 -99.9 -99.99 -9.99
2019/06/17 14:54 EDT    0.41   0.49    7  239   10  87.8  76.5 1015.0 11.9  1.007 -99.9 -99.99 -9.99
2019/06/17 15:00 EDT    0.38   0.45    5  248    9  88.0  76.8 1014.9 11.9  1.007 -99.9 -99.99 -9.99
2019/06/17 15:06 EDT    0.35   0.42    6  268   10  88.2  77.2 1014.9 11.8  1.007 -99.9 -99.99 -9.99
2019/06/17 15:12 EDT    0.32   0.38    6  258    8  88.0  77.4 1014.9 11.8  1.007 -99.9 -99.99 -9.99
2019/06/17 15:18 EDT    0.30   0.35    4  247    7  88.5  77.2 1014.9 11.8  1.007 -99.9 -99.99 -9.99
2019/06/17 15:24 EDT    0.28   0.32    6  255   10  88.3  77.0 1014.9 11.8  1.007 -99.9 -99.99 -9.99
2019/06/17 15:30 EDT    0.26   0.29    7  264    8  88.2  78.8 1014.9 11.9  1.007 -99.9 -99.99 -9.99
2019/06/17 15:36 EDT    0.25   0.26    5  261    7  88.2  77.4 1014.8 12.0  1.007 -99.9 -99.99 -9.99
2019/06/17 15:42 EDT    0.23   0.23    8  241   10  88.0  77.5 1014.7 11.9  1.007 -99.9 -99.99 -9.99
2019/06/17 15:48 EDT    0.22   0.20    7  261    9  87.1  77.4 1014.6 11.9  1.007 -99.9 -99.99 -9.99
2019/06/17 15:54 EDT    0.22   0.19    5  251    7  87.6  77.2 1014.6 11.9  1.007 -99.9 -99.99 -9.99
2019/06/17 16:00 EDT    0.21   0.18    5  253    6  87.6  77.2 1014.5 11.9  1.007 -99.9 -99.99 -9.99
2019/06/17 16:06 EDT    0.21   0.17    5  258    6  86.7  77.5 1014.6 11.8  1.007 -99.9 -99.99 -9.99
2019/06/17 16:12 EDT    0.21   0.17   11  262   13  84.2  77.5 1014.8 11.8  1.007 -99.9 -99.99 -9.99
2019/06/17 16:18 EDT    0.22   0.19   20  233   27  79.0  77.5 1014.8 11.8  1.007 -99.9 -99.99 -9.99
2019/06/17 16:24 EDT    0.22   0.20   25  222   35  77.0  77.4 1013.9 11.7  1.007 -99.9 -99.99 -9.99
2019/06/17 16:30 EDT    0.23   0.18   10  214   41  74.8  77.4 1014.8 11.7  1.007 -99.9 -99.99 -9.99
2019/06/17 16:36 EDT    0.25   0.19   15  200   26  76.6  77.2 1014.5 11.8  1.007 -99.9 -99.99 -9.99
2019/06/17 16:42 EDT    0.26   0.21   24  189   30  79.0  77.0 1014.0 11.8  1.007 -99.9 -99.99 -9.99
2019/06/17 16:48 EDT    0.28   0.20   13  182   28  78.6  77.0 1014.2 11.8  1.007 -99.9 -99.99 -9.99
2019/06/17 16:54 EDT    0.30   0.24   16  158   22  80.1  77.2 1014.5 11.8  1.007 -99.9 -99.99 -9.99
2019/06/17 17:00 EDT    0.33   0.24    7  163   23  79.5  77.2 1014.7 11.8  1.007 -99.9 -99.99 -9.99
2019/06/17 17:06 EDT    0.35   0.26   10  190   14  79.7  77.2 1014.8 11.8  1.007 -99.9 -99.99 -9.99
2019/06/17 17:12 EDT    0.38   0.31    8  193   10  78.8  77.2 1014.7 11.8  1.007 -99.9 -99.99 -9.99
2019/06/17 17:18 EDT    0.41   0.36    8  176    9  78.1  77.5 1014.7 11.8  1.007 -99.9 -99.99 -9.99
2019/06/17 17:24 EDT    0.45   0.39    9  183   13  79.2  77.5 1014.4 11.8  1.007 -99.9 -99.99 -9.99
2019/06/17 17:30 EDT    0.49   0.43    8  177   10  80.8  77.5 1014.2 11.7  1.007 -99.9 -99.99 -9.99
2019/06/17 17:36 EDT    0.53   0.47    9  192   11  81.7  77.5 1014.0 11.7  1.007 -99.9 -99.99 -9.99
2019/06/17 17:42 EDT    0.57   0.54    8  177   11  81.5  77.5 1013.9 11.7  1.007 -99.9 -99.99 -9.99
2019/06/17 17:48 EDT    0.62   0.57    9  176   14  81.3  77.5 1013.9 11.7  1.007 -99.9 -99.99 -9.99
2019/06/17 17:54 EDT    0.66   0.62    6  194   10  81.9  77.7 1013.7 11.7  1.007 -99.9 -99.99 -9.99
2019/06/17 18:00 EDT    0.72   0.69    6  183    8  81.9  77.7 1013.7 11.7  1.007 -99.9 -99.99 -9.99
2019/06/17 18:06 EDT    0.77   0.76    5  188    7  82.0  77.4 1013.6 11.7  1.007 -99.9 -99.99 -9.99
2019/06/17 18:12 EDT    0.82   0.82    5  195    6  82.2  77.4 1013.5 11.7  1.007 -99.9 -99.99 -9.99
2019/06/17 18:18 EDT    0.88   0.88    5  187    7  82.6  77.2 1013.4 11.8  1.007 -99.9 -99.99 -9.99
2019/06/17 18:24 EDT    0.94   0.98    4  185    5  82.9  77.2 1013.7 11.8  1.007 -99.9 -99.99 -9.99
2019/06/17 18:30 EDT    1.00   1.00    4  187    5  83.5  77.0 1013.7 11.9  1.007 -99.9 -99.99 -9.99
2019/06/17 18:36 EDT    1.06   1.10    1  251    4  84.0  77.0 1013.9 11.9  1.007 -99.9 -99.99 -9.99
2019/06/17 18:42 EDT    1.13   1.20    2   61    3  82.2  77.0 1014.0 11.9  1.007 -99.9 -99.99 -9.99
2019/06/17 18:48 EDT    1.19   1.31    1  150    2  82.6  77.0 1014.1 11.9  1.007 -99.9 -99.99 -9.99
2019/06/17 18:54 EDT    1.26   1.41    3  148    3  82.9  77.0 1014.3 11.9  1.007 -99.9 -99.99 -9.99
2019/06/17 19:00 EDT    1.33   1.51    5  149    6  82.6  77.2 1014.6 11.9  1.007 -99.9 -99.99 -9.99
2019/06/17 19:06 EDT    1.40   1.60    5  168    6  81.7  77.2 1014.6 11.9  1.007 -99.9 -99.99 -9.99
2019/06/17 19:12 EDT    1.47   1.70    7  180    8  82.8  77.2 1014.1 11.9  1.007 -99.9 -99.99 -9.99
2019/06/17 19:18 EDT    1.54   1.80    7  183   10  83.1  77.2 1014.2 11.9  1.007 -99.9 -99.99 -9.99
2019/06/17 19:24 EDT    1.61   1.87    6  280   11  82.2  77.2 1014.9 11.9  1.007 -99.9 -99.99 -9.99
2019/06/17 19:30 EDT    1.68   1.93    9  266   11  81.5  77.2 1015.6 12.0  1.007 -99.9 -99.99 -9.99
2019/06/17 19:36 EDT    1.75   2.02   17  176   35  74.7  77.2 1015.6 12.0  1.007 -99.9 -99.99 -9.99
2019/06/17 19:42 EDT    1.82   2.08    2  213   12  75.4  77.4 1016.1 12.0  1.007 -99.9 -99.99 -9.99
2019/06/17 19:48 EDT    1.89   2.15    8  289   22  77.5  77.4 1016.7 12.0  1.007 -99.9 -99.99 -9.99
2019/06/17 19:54 EDT    1.96   2.30   25  354   30  74.3  77.2 1016.6 12.0  1.007 -99.9 -99.99 -9.99
2019/06/17 20:00 EDT    2.02   2.49   25   18   31  73.4  77.2 1016.3 12.0  1.007 -99.9 -99.99 -9.99
2019/06/17 20:06 EDT    2.09   2.48   17   55   23  73.2  77.0 1016.2 12.0  1.007 -99.9 -99.99 -9.99
2019/06/17 20:12 EDT    2.15   2.35   12   71   19  73.2  77.0 1015.3 12.0  1.007 -99.9 -99.99 -9.99
2019/06/17 20:18 EDT    2.22   2.30   10  117   12  73.2  77.0 1015.7 11.9  1.007 -99.9 -99.99 -9.99
2019/06/17 20:24 EDT    2.28   2.32   15   95   17  73.6  76.6 1015.9 11.9  1.007 -99.9 -99.99 -9.99
2019/06/17 20:30 EDT    2.34   2.41   12   98   16  73.6  76.6 1015.5 12.0  1.007 -99.9 -99.99 -9.99
2019/06/17 20:36 EDT    2.39   2.48    7  116   13  73.9  76.6 1015.1 12.0  1.007 -99.9 -99.99 -9.99
2019/06/17 20:42 EDT    2.45   2.50    7  151    9  74.1  76.6 1015.1 12.0  1.007 -99.9 -99.99 -9.99
2019/06/17 20:48 EDT    2.50   2.55    7  144    9  73.9  76.8 1015.2 11.9  1.007 -99.9 -99.99 -9.99
2019/06/17 20:54 EDT    2.55   2.61    6  128    8  73.8  76.8 1015.2 11.9  1.007 -99.9 -99.99 -9.99
2019/06/17 21:00 EDT    2.59   2.52    5  127    7  73.8  76.8 1015.4 11.9  1.007 -99.9 -99.99 -9.99
2019/06/17 21:06 EDT    2.64   2.56    4  157    5  73.9  76.8 1015.5 11.9  1.007 -99.9 -99.99 -9.99
2019/06/17 21:12 EDT    2.68   2.61    4  191    5  73.8  76.6 1015.5 11.9  1.007 -99.9 -99.99 -9.99
2019/06/17 21:18 EDT    2.71   2.72    5  205    6  73.2  76.6 1015.5 11.9  1.007 -99.9 -99.99 -9.99
2019/06/17 21:24 EDT    2.75   2.84    3  213    5  72.9  76.6 1015.5 11.9  1.007 -99.9 -99.99 -9.99
2019/06/17 21:30 EDT    2.78   2.93    3  200    3  72.7  76.6 1015.7 12.0  1.007 -99.9 -99.99 -9.99
2019/06/17 21:36 EDT    2.80   3.00    3  173    4  72.9  76.6 1015.6 11.9  1.007 -99.9 -99.99 -9.99
2019/06/17 21:42 EDT    2.83   3.01    5  151    6  73.2  76.6 1015.4 12.0  1.007 -99.9 -99.99 -9.99
2019/06/17 21:48 EDT    2.85   2.94    6  183    7  73.2  76.6 1015.3 12.0  1.007 -99.9 -99.99 -9.99
2019/06/17 21:54 EDT    2.86   2.89    7  192    8  73.6  76.6 1015.3 12.0  1.007 -99.9 -99.99 -9.99
2019/06/17 22:00 EDT    2.88   2.87    7  208   11  73.6  76.8 1015.3 11.9  1.007 -99.9 -99.99 -9.99
2019/06/17 22:06 EDT    2.88   2.86    6  210    8  73.6  77.0 1015.3 12.0  1.007 -99.9 -99.99 -9.99
2019/06/17 22:12 EDT    2.89   2.82    7  211    8  73.4  77.0 1015.3 11.9  1.007 -99.9 -99.99 -9.99
2019/06/17 22:18 EDT    2.89   2.79    6  204    9  73.6  77.0 1015.3 12.0  1.007 -99.9 -99.99 -9.99
2019/06/17 22:24 EDT    2.89   2.80    6  207    7  73.8  77.0 1015.4 12.0  1.007 -99.9 -99.99 -9.99
2019/06/17 22:30 EDT    2.89   2.85    6  206    7  73.8  77.0 1015.5 12.0  1.007 -99.9 -99.99 -9.99
2019/06/17 22:36 EDT    2.88   2.89    3  211    6  73.8  76.8 1015.7 12.0  1.007 -99.9 -99.99 -9.99
2019/06/17 22:42 EDT    2.87   2.92    2  227    4  73.8  76.6 1015.8 12.1  1.007 -99.9 -99.99 -9.99
2019/06/17 22:48 EDT    2.86   2.94    1  172    2  73.6  76.6 1015.7 12.1  1.007 -99.9 -99.99 -9.99
2019/06/17 22:54 EDT    2.84   2.95    1  160    2  73.8  76.5 1015.6 12.1  1.007 -99.9 -99.99 -9.99
2019/06/17 23:00 EDT    2.82   2.93    2  197    3  73.9  76.3 1015.7 12.2  1.007 -99.9 -99.99 -9.99
2019/06/17 23:06 EDT    2.80   2.90    3  197    4  73.9  76.1 1015.7 12.2  1.007 -99.9 -99.99 -9.99
2019/06/17 23:12 EDT    2.77   2.86    5  215    6  73.4  76.3 1015.8 12.2  1.007 -99.9 -99.99 -9.99
2019/06/17 23:18 EDT    2.74   2.82    6  202    8  73.4  76.3 1015.8 12.2  1.007 -99.9 -99.99 -9.99
2019/06/17 23:24 EDT    2.71   2.80    7  200    9  73.6  76.5 1015.7 12.1  1.007 -99.9 -99.99 -9.99
2019/06/17 23:30 EDT    2.68   2.76    8  200    9  73.8  76.6 1015.6 12.1  1.007 -99.9 -99.99 -9.99
2019/06/17 23:36 EDT    2.64   2.74    7  199   11  73.9  76.6 1015.6 12.1  1.007 -99.9 -99.99 -9.99
2019/06/17 23:42 EDT    2.60   2.71    6  198    9  74.1  76.6 1015.7 12.1  1.007 -99.9 -99.99 -9.99
2019/06/17 23:48 EDT    2.56   2.68    7  196    9  74.3  77.0 1015.6 12.0  1.007 -99.9 -99.99 -9.99
2019/06/17 23:54 EDT    2.52   2.67    6  194    9  74.3  77.0 1015.5 12.0  1.007 -99.9 -99.99 -9.99
2019/06/18 00:00 EDT    2.48   2.64    6  202    7  74.3  77.0 1015.4 11.9  1.007 -99.9 -99.99 -9.99
2019/06/18 00:06 EDT    2.43   2.60    4  202    6  74.3  77.0 1015.4 11.9  1.007 -99.9 -99.99 -9.99
2019/06/18 00:12 EDT    2.38   2.57    5  202    8  74.5  77.0 1015.4 11.9  1.007 -99.9 -99.99 -9.99
2019/06/18 00:18 EDT    2.33   2.55    8  209    9  74.7  77.0 1015.4 12.0  1.007 -99.9 -99.99 -9.99
2019/06/18 00:24 EDT    2.28   2.51    8  216   10  74.7  76.8 1015.4 12.0  1.007 -99.9 -99.99 -9.99
2019/06/18 00:30 EDT    2.22   2.46    7  217    9  74.5  76.8 1015.4 12.0  1.007 -99.9 -99.99 -9.99
2019/06/18 00:36 EDT    2.17   2.41    7  211    9  74.8  76.6 1015.3 12.0  1.007 -99.9 -99.99 -9.99
2019/06/18 00:42 EDT    2.11   2.36    7  215    9  74.8  76.8 1015.2 12.0  1.007 -99.9 -99.99 -9.99
2019/06/18 00:48 EDT    2.05   2.31    6  217    8  74.7  76.6 1015.1 12.1  1.007 -99.9 -99.99 -9.99
2019/06/18 00:54 EDT    1.99   2.27    7  219    8  74.5  76.5 1015.1 12.1  1.007 -99.9 -99.99 -9.99
2019/06/18 01:00 EDT    1.93   2.22    6  221    8  74.3  76.1 1015.0 12.2  1.007 -99.9 -99.99 -9.99
2019/06/18 01:06 EDT    1.87   2.17    6  225    8  74.3  76.3 1015.0 12.1  1.007 -99.9 -99.99 -9.99
2019/06/18 01:12 EDT    1.80   2.13    6  237    8  74.7  76.1 1015.0 12.2  1.007 -99.9 -99.99 -9.99
2019/06/18 01:18 EDT    1.74   2.09    6  224    7  74.8  76.1 1015.0 12.2  1.007 -99.9 -99.99 -9.99
2019/06/18 01:24 EDT    1.68   2.05    7  224    8  74.7  76.3 1015.0 12.1  1.007 -99.9 -99.99 -9.99
2019/06/18 01:30 EDT    1.61   2.00    8  222    9  74.8  76.8 1015.0 12.0  1.007 -99.9 -99.99 -9.99
2019/06/18 01:36 EDT    1.55   1.95    7  218    9  74.5  76.8 1015.0 11.9  1.007 -99.9 -99.99 -9.99
2019/06/18 01:42 EDT    1.48   1.89    7  213   10  74.5  76.8 1015.0 11.9  1.007 -99.9 -99.99 -9.99
2019/06/18 01:48 EDT    1.42   1.83    8  221   10  74.5  76.8 1014.9 11.9  1.007 -99.9 -99.99 -9.99
2019/06/18 01:54 EDT    1.35   1.77    7  219    9  74.5  76.8 1014.9 11.9  1.007 -99.9 -99.99 -9.99
2019/06/18 02:00 EDT    1.29   1.70    8  211   11  74.8  76.8 1014.8 11.8  1.007 -99.9 -99.99 -9.99
2019/06/18 02:06 EDT    1.23   1.65    8  215   11  74.8  76.8 1014.7 11.8  1.007 -99.9 -99.99 -9.99
2019/06/18 02:12 EDT    1.16   1.58    8  217   11  75.0  76.8 1014.7 11.7  1.007 -99.9 -99.99 -9.99
2019/06/18 02:18 EDT    1.10   1.53    9  215   11  75.2  76.6 1014.6 11.6  1.007 -99.9 -99.99 -9.99
2019/06/18 02:24 EDT    1.04   1.46    8  219   11  75.2  76.6 1014.6 11.6  1.007 -99.9 -99.99 -9.99
2019/06/18 02:30 EDT    0.98   1.39    7  219   10  75.2  76.6 1014.5 11.8  1.007 -99.9 -99.99 -9.99
2019/06/18 02:36 EDT    0.92   1.33    8  224   10  75.4  76.6 1014.5 11.9  1.007 -99.9 -99.99 -9.99
2019/06/18 02:42 EDT    0.86   1.26    8  222   10  75.4  76.5 1014.5 12.0  1.007 -99.9 -99.99 -9.99
2019/06/18 02:48 EDT    0.81   1.20    8  226   10  75.6  76.6 1014.5 11.8  1.007 -99.9 -99.99 -9.99
2019/06/18 02:54 EDT    0.75   1.14    8  225   10  75.7  76.5 1014.5 11.8  1.007 -99.9 -99.99 -9.99
2019/06/18 03:00 EDT    0.70   1.08    9  226   11  75.9  76.3 1014.4 11.9  1.007 -99.9 -99.99 -9.99
2019/06/18 03:06 EDT    0.65   1.03    8  224   11  75.9  76.3 1014.4 11.9  1.007 -99.9 -99.99 -9.99
2019/06/18 03:12 EDT    0.60   0.97    9  225   11  76.1  76.3 1014.4 11.8  1.007 -99.9 -99.99 -9.99
2019/06/18 03:18 EDT    0.55   0.90    8  223   11  75.9  76.1 1014.3 11.9  1.007 -99.9 -99.99 -9.99
2019/06/18 03:24 EDT    0.51   0.91    8  224   10  75.9  76.1 1014.3 12.0  1.007 -99.9 -99.99 -9.99
2019/06/18 03:30 EDT    0.46   0.79    8  223   12  76.1  75.9 1014.3 12.0  1.007 -99.9 -99.99 -9.99
2019/06/18 03:36 EDT    0.42   0.74    8  224   12  76.3  75.9 1014.3 12.0  1.007 -99.9 -99.99 -9.99
2019/06/18 03:42 EDT    0.38   0.69    8  225   11  76.3  76.5 1014.3 11.8  1.007 -99.9 -99.99 -9.99
2019/06/18 03:48 EDT    0.35   0.64    9  230   11  76.5  76.1 1014.2 11.9  1.007 -99.9 -99.99 -9.99
2019/06/18 03:54 EDT    0.31   0.61    7  227   10  76.3  75.4 1014.3 12.3  1.007 -99.9 -99.99 -9.99
2019/06/18 04:00 EDT    0.28   0.58    8  238   11  76.5  76.5 1014.3 11.8  1.007 -99.9 -99.99 -9.99
2019/06/18 04:06 EDT    0.26   0.55    9  236   11  76.8  76.5 1014.3 11.8  1.007 -99.9 -99.99 -9.99
2019/06/18 04:12 EDT    0.23   0.52    8  247   11  76.6  76.1 1014.4 12.0  1.007 -99.9 -99.99 -9.99
2019/06/18 04:18 EDT    0.21   0.49    7  245   10  76.6  76.1 1014.3 12.0  1.007 -99.9 -99.99 -9.99
2019/06/18 04:24 EDT    0.19   0.47    7  247   10  76.6  75.9 1014.3 12.0  1.007 -99.9 -99.99 -9.99
2019/06/18 04:30 EDT    0.17   0.45    7  248   10  76.6  75.9 1014.4 12.0  1.007 -99.9 -99.99 -9.99
2019/06/18 04:36 EDT    0.16   0.44    7  249   10  76.5  75.7 1014.5 12.1  1.007 -99.9 -99.99 -9.99
2019/06/18 04:42 EDT    0.14   0.44    8  249   11  76.3  75.6 1014.5 12.1  1.007 -99.9 -99.99 -9.99
2019/06/18 04:48 EDT    0.14   0.44    8  251   10  76.1  76.3 1014.5 11.8  1.007 -99.9 -99.99 -9.99
2019/06/18 04:54 EDT    0.13   0.43    7  238   10  75.9  76.3 1014.5 11.8  1.007 -99.9 -99.99 -9.99
2019/06/18 05:00 EDT    0.13   0.43   10  229   12  75.7  76.3 1014.5 11.8  1.007 -99.9 -99.99 -9.99
2019/06/18 05:06 EDT    0.13   0.43    9  233   13  75.6  76.3 1014.5 11.8  1.007 -99.9 -99.99 -9.99
2019/06/18 05:12 EDT    0.13   0.43    8  231   11  75.6  76.3 1014.4 11.7  1.007 -99.9 -99.99 -9.99
2019/06/18 05:18 EDT    0.14   0.43    9  239   12  75.6  76.1 1014.4 11.7  1.007 -99.9 -99.99 -9.99
2019/06/18 05:24 EDT    0.14   0.44    8  235   11  75.4  76.3 1014.5 11.6  1.007 -99.9 -99.99 -9.99
2019/06/18 05:30 EDT    0.16   0.45    8  235   10  75.4  76.3 1014.5 11.6  1.007 -99.9 -99.99 -9.99
2019/06/18 05:36 EDT    0.17   0.47    8  236   10  75.2  76.3 1014.5 11.6  1.007 -99.9 -99.99 -9.99
2019/06/18 05:42 EDT    0.19   0.50    8  231   11  75.0  76.3 1014.5 11.6  1.007 -99.9 -99.99 -9.99
2019/06/18 05:48 EDT    0.21   0.52    7  236   10  74.8  76.5 1014.6 11.5  1.007 -99.9 -99.99 -9.99
2019/06/18 05:54 EDT    0.23   0.55    9  235   10  74.8  76.5 1014.8 11.6  1.007 -99.9 -99.99 -9.99
2019/06/18 06:00 EDT    0.26   0.57    8  232   10  74.8  76.5 1014.8 11.6  1.007 -99.9 -99.99 -9.99
2019/06/18 06:06 EDT    0.29   0.60    9  226   11  74.8  76.5 1014.7 11.5  1.007 -99.9 -99.99 -9.99
2019/06/18 06:12 EDT    0.32   0.62    9  227   12  74.7  76.3 1014.6 11.6  1.007 -99.9 -99.99 -9.99
2019/06/18 06:18 EDT    0.35   0.65    9  229   11  74.8  76.5 1014.6 11.5  1.007 -99.9 -99.99 -9.99
2019/06/18 06:24 EDT    0.39   0.67    8  231   12  74.8  76.5 1014.7 11.5  1.007 -99.9 -99.99 -9.99
2019/06/18 06:30 EDT    0.43   0.70    8  236   11  74.7  76.5 1014.7 11.5  1.007 -99.9 -99.99 -9.99
2019/06/18 06:36 EDT    0.47   0.72    9  229   12  74.8  76.5 1014.7 11.5  1.007 -99.9 -99.99 -9.99
2019/06/18 06:42 EDT    0.51   0.74    8  233   11  74.8  76.5 1014.7 11.5  1.007 -99.9 -99.99 -9.99
2019/06/18 06:48 EDT    0.56   0.77   10  235   12  75.0  76.5 1014.7 11.5  1.007 -99.9 -99.99 -9.99
2019/06/18 06:54 EDT    0.61   0.80    9  227   11  75.2  76.5 1014.6 11.5  1.007 -99.9 -99.99 -9.99
2019/06/18 07:00 EDT    0.66   0.84   10  230   12  75.4  76.5 1014.5 11.5  1.007 -99.9 -99.99 -9.99
2019/06/18 07:06 EDT    0.71   0.87    9  222   11  75.4  76.5 1014.6 11.5  1.007 -99.9 -99.99 -9.99
2019/06/18 07:12 EDT    0.76   0.92    8  223   11  75.2  76.5 1014.6 11.5  1.007 -99.9 -99.99 -9.99
2019/06/18 07:18 EDT    0.82   0.97   10  223   11  75.2  76.5 1014.6 11.5  1.007 -99.9 -99.99 -9.99
2019/06/18 07:24 EDT    0.88   1.03    9  224   12  75.4  76.5 1014.6 11.5  1.007 -99.9 -99.99 -9.99
2019/06/18 07:30 EDT    0.93   1.09   10  222   12  75.4  76.5 1014.6 11.5  1.007 -99.9 -99.99 -9.99
2019/06/18 07:36 EDT    0.99   1.15   11  221   14  75.6  76.3 1014.5 11.6  1.007 -99.9 -99.99 -9.99
2019/06/18 07:42 EDT    1.05   1.20   10  210   14  75.6  76.3 1014.5 11.6  1.007 -99.9 -99.99 -9.99
2019/06/18 07:48 EDT    1.11   1.26   10  216   14  75.7  76.1 1014.4 11.7  1.007 -99.9 -99.99 -9.99
2019/06/18 07:54 EDT    1.17   1.32   10  216   13  75.9  76.1 1014.4 11.8  1.007 -99.9 -99.99 -9.99
2019/06/18 08:00 EDT    1.23   1.38    9  217   13  76.1  76.1 1014.6 11.8  1.007 -99.9 -99.99 -9.99
2019/06/18 08:06 EDT    1.30   1.44    7  226   12  76.5  76.1 1014.6 11.8  1.007 -99.9 -99.99 -9.99
2019/06/18 08:12 EDT    1.36   1.50    6  228   13  76.8  76.1 1014.6 11.8  1.007 -99.9 -99.99 -9.99
2019/06/18 08:18 EDT    1.42   1.56   10  226   13  77.2  76.1 1014.7 11.8  1.007 -99.9 -99.99 -9.99
2019/06/18 08:24 EDT    1.48   1.62    7  230   12  77.5  76.1 1014.7 11.8  1.007 -99.9 -99.99 -9.99
2019/06/18 08:30 EDT    1.54   1.69    8  227   12  77.7  76.1 1014.7 11.8  1.007 -99.9 -99.99 -9.99
2019/06/18 08:36 EDT    1.60   1.75    7  226   12  78.1  76.1 1014.6 11.9  1.007 -99.9 -99.99 -9.99
2019/06/18 08:42 EDT    1.65   1.82    7  233   11  78.3  76.1 1014.5 11.9  1.007 -99.9 -99.99 -9.99
2019/06/18 08:48 EDT    1.71   1.89   10  214   11  78.4  76.1 1014.5 11.8  1.007 -99.9 -99.99 -9.99
2019/06/18 08:54 EDT    1.76   1.95    6  224   12  78.6  76.1 1014.5 11.8  1.007 -99.9 -99.99 -9.99
2019/06/18 09:00 EDT    1.81   2.01   10  218   12  78.8  75.9 1014.5 11.9  1.007 -99.9 -99.99 -9.99
2019/06/18 09:06 EDT    1.86   2.06    8  217   12  79.0  75.9 1014.5 11.9  1.007 -99.9 -99.99 -9.99
2019/06/18 09:12 EDT    1.91   2.11   11  218   13  79.2  75.9 1014.5 11.8  1.007 -99.9 -99.99 -9.99
2019/06/18 09:18 EDT    1.96   2.17   10  231   13  79.3  75.9 1014.7 11.8  1.007 -99.9 -99.99 -9.99
2019/06/18 09:24 EDT    2.00   2.22    9  221   11  79.7  75.9 1014.7 11.8  1.007 -99.9 -99.99 -9.99
2019/06/18 09:30 EDT    2.04   2.28    9  239   13  79.7  75.7 1014.8 11.9  1.007 -99.9 -99.99 -9.99
2019/06/18 09:36 EDT    2.08   2.30    9  225   12  79.7  75.7 1014.7 11.9  1.007 -99.9 -99.99 -9.99
2019/06/18 09:42 EDT    2.12   2.35   10  222   13  79.7  75.7 1014.6 11.9  1.007 -99.9 -99.99 -9.99
2019/06/18 09:48 EDT    2.15   2.38    9  230   13  79.7  75.7 1014.7 11.9  1.007 -99.9 -99.99 -9.99
2019/06/18 09:54 EDT    2.18   2.42    8  230   11  79.9  75.7 1014.6 12.0  1.007 -99.9 -99.99 -9.99
2019/06/18 10:00 EDT    2.21   2.45    7  238   14  80.1  75.7 1014.5 12.0  1.007 -99.9 -99.99 -9.99
2019/06/18 10:06 EDT    2.23   2.49   10  238   12  80.4  75.6 1014.5 12.0  1.007 -99.9 -99.99 -9.99
2019/06/18 10:12 EDT    2.25   2.53    8  231   13  80.4  75.6 1014.5 12.0  1.007 -99.9 -99.99 -9.99
2019/06/18 10:18 EDT    2.27   2.56    8  243   14  81.0  75.6 1014.6 12.0  1.007 -99.9 -99.99 -9.99
2019/06/18 10:24 EDT    2.29   2.58    9  230   14  81.1  75.6 1014.6 12.0  1.007 -99.9 -99.99 -9.99
2019/06/18 10:30 EDT    2.30   2.60   12  236   15  81.5  75.4 1014.6 12.1  1.007 -99.9 -99.99 -9.99
2019/06/18 10:36 EDT    2.31   2.61   14  234   18  81.7  75.4 1014.6 12.1  1.007 -99.9 -99.99 -9.99
2019/06/18 10:42 EDT    2.31   2.62   14  234   19  81.9  75.4 1014.5 12.1  1.007 -99.9 -99.99 -9.99
2019/06/18 10:48 EDT    2.31   2.63   11  229   14  82.0  75.6 1014.5 12.0  1.007 -99.9 -99.99 -9.99
2019/06/18 10:54 EDT    2.31   2.63   14  234   17  81.9  75.6 1014.5 12.0  1.007 -99.9 -99.99 -9.99
2019/06/18 11:00 EDT    2.31   2.64   11  225   17  82.0  75.4 1014.5 12.1  1.007 -99.9 -99.99 -9.99
2019/06/18 11:06 EDT    2.30   2.64   11  236   17  82.2  75.4 1014.5 12.1  1.007 -99.9 -99.99 -9.99
2019/06/18 11:12 EDT    2.29   2.64    9  235   16  82.2  75.2 1014.6 12.1  1.007 -99.9 -99.99 -9.99
2019/06/18 11:18 EDT    2.28   2.64   12  247   16  82.4  75.4 1014.5 12.1  1.007 -99.9 -99.99 -9.99
2019/06/18 11:24 EDT    2.27   2.64   11  237   18  82.2  75.4 1014.5 12.1  1.007 -99.9 -99.99 -9.99
2019/06/18 11:30 EDT    2.25   2.63   13  240   18  81.9  75.2 1014.5 12.1  1.007 -99.9 -99.99 -9.99
2019/06/18 11:36 EDT    2.23   2.62   12  236   17  81.7  75.4 1014.6 12.1  1.007 -99.9 -99.99 -9.99
2019/06/18 11:42 EDT    2.21   2.60   11  243   15  81.3  75.4 1014.6 12.1  1.007 -99.9 -99.99 -9.99
2019/06/18 11:48 EDT    2.18   2.57    9  241   14  81.1  75.4 1014.7 12.1  1.007 -99.9 -99.99 -9.99
2019/06/18 11:54 EDT    2.15   2.54    7  244   12  81.0  75.2 1014.7 12.2  1.007 -99.9 -99.99 -9.99
2019/06/18 12:00 EDT    2.12   2.51    9  232   12  81.1  75.4 1014.6 12.1  1.007 -99.9 -99.99 -9.99
2019/06/18 12:06 EDT    2.09   2.48    9  239   12  81.3  75.6 1014.5 12.1  1.007 -99.9 -99.99 -9.99
2019/06/18 12:12 EDT    2.06   2.44    9  244   14  81.5  75.9 1014.4 12.0  1.007 -99.9 -99.99 -9.99
2019/06/18 12:18 EDT    2.02   2.41   11  250   14  81.7  75.7 1014.4 12.0  1.007 -99.9 -99.99 -9.99
2019/06/18 12:24 EDT    1.98   2.36    9  242   13  81.9  75.7 1014.3 12.0  1.007 -99.9 -99.99 -9.99
2019/06/18 12:30 EDT    1.94   2.31   10  241   17  82.6  75.7 1014.3 11.9  1.007 -99.9 -99.99 -9.99
2019/06/18 12:36 EDT    1.90   2.26   10  231   13  82.8  76.3 1014.2 11.8  1.007 -99.9 -99.99 -9.99
2019/06/18 12:42 EDT    1.86   2.22   11  242   17  82.8  76.6 1014.2 11.8  1.007 -99.9 -99.99 -9.99
2019/06/18 12:48 EDT    1.81   2.17   14  234   19  82.9  77.0 1014.1 11.7  1.007 -99.9 -99.99 -9.99
2019/06/18 12:54 EDT    1.77   2.12   15  231   19  82.9  77.0 1014.0 11.7  1.007 -99.9 -99.99 -9.99
2019/06/18 13:00 EDT    1.72   2.08   13  248   18  83.1  76.3 1014.0 11.9  1.007 -99.9 -99.99 -9.99
2019/06/18 13:06 EDT    1.67   2.03   11  240   15  83.1  75.6 1014.0 12.1  1.007 -99.9 -99.99 -9.99
2019/06/18 13:12 EDT    1.62   2.00   11  250   15  83.7  75.6 1013.9 12.1  1.007 -99.9 -99.99 -9.99
2019/06/18 13:18 EDT    1.57   1.95   10  234   13  84.0  75.7 1013.8 12.1  1.007 -99.9 -99.99 -9.99
2019/06/18 13:24 EDT    1.52   1.89   14  227   20  84.0  75.6 1013.7 12.1  1.007 -99.9 -99.99 -9.99
2019/06/18 13:30 EDT    1.47   1.83   12  230   19  84.2  75.4 1013.7 12.1  1.007 -99.9 -99.99 -9.99
2019/06/18 13:36 EDT    1.41   1.78   14  234   19  84.4  75.6 1013.7 12.0  1.007 -99.9 -99.99 -9.99
2019/06/18 13:42 EDT    1.36   1.71   12  227   17  84.6  75.9 1013.7 12.0  1.007 -99.9 -99.99 -9.99
2019/06/18 13:48 EDT    1.31   1.65   10  241   15  84.7  76.8 1013.6 11.8  1.007 -99.9 -99.99 -9.99
2019/06/18 13:54 EDT    1.25   1.59   12  251   19  84.6  76.1 1013.5 11.9  1.007 -99.9 -99.99 -9.99
2019/06/18 14:00 EDT    1.20   1.54   15  260   20  84.9  76.1 1013.4 11.9  1.007 -99.9 -99.99 -9.99
2019/06/18 14:06 EDT    1.15   1.47   14  239   18  84.7  76.5 1013.4 11.8  1.007 -99.9 -99.99 -9.99
2019/06/18 14:12 EDT    1.09   1.41   14  237   19  84.7  77.0 1013.4 11.8  1.007 -99.9 -99.99 -9.99
2019/06/18 14:18 EDT    1.04   1.35   13  247   17  85.1  77.2 1013.4 11.8  1.007 -99.9 -99.99 -9.99
2019/06/18 14:24 EDT    0.99   1.30   13  252   17  85.1  77.0 1013.3 11.8  1.007 -99.9 -99.99 -9.99
2019/06/18 14:30 EDT    0.94   1.25   10  242   14  85.5  77.0 1013.2 11.8  1.007 -99.9 -99.99 -9.99
2019/06/18 14:36 EDT    0.89   1.21   12  255   16  85.3  77.0 1013.1 11.8  1.007 -99.9 -99.99 -9.99
2019/06/18 14:42 EDT    0.84   1.17   11  239   15  85.5  77.0 1013.0 11.9  1.007 -99.9 -99.99 -9.99
2019/06/18 14:48 EDT    0.79   1.12   11  259   16  85.5  76.8 1012.9 11.9  1.007 -99.9 -99.99 -9.99
2019/06/18 14:54 EDT    0.74   1.07   11  233   17  85.5  76.8 1012.9 11.9  1.007 -99.9 -99.99 -9.99
2019/06/18 15:00 EDT    0.70   1.03   12  228   16  85.5  77.4 1012.7 11.9  1.007 -99.9 -99.99 -9.99
2019/06/18 15:06 EDT    0.66   0.98    9  241   14  85.6  77.2 1012.8 11.8  1.007 -99.9 -99.99 -9.99
2019/06/18 15:12 EDT    0.61   0.93   11  235   15  86.0  77.2 1012.7 11.8  1.007 -99.9 -99.99 -9.99
2019/06/18 15:18 EDT    0.57   0.89    6  232   13  86.2  77.2 1012.6 11.7  1.007 -99.9 -99.99 -9.99
2019/06/18 15:24 EDT    0.54   0.84   11  258   13  86.0  77.4 1012.5 11.7  1.007 -99.9 -99.99 -9.99
2019/06/18 15:30 EDT    0.50   0.80    9  257   15  86.2  77.7 1012.4 11.7  1.007 -99.9 -99.99 -9.99
2019/06/18 15:36 EDT    0.47   0.77    9  267   12  86.5  77.4 1012.4 11.7  1.007 -99.9 -99.99 -9.99
2019/06/18 15:42 EDT    0.43   0.74   10  258   14  86.7  77.0 1012.4 11.8  1.007 -99.9 -99.99 -9.99
2019/06/18 15:48 EDT    0.40   0.73   10  260   13  86.7  77.7 1012.5 11.7  1.007 -99.9 -99.99 -9.99
2019/06/18 15:54 EDT    0.38   0.71    9  242   12  86.9  77.9 1012.4 11.8  1.007 -99.9 -99.99 -9.99
2019/06/18 16:00 EDT    0.35   0.69   10  237   13  86.9  77.4 1012.2 11.8  1.007 -99.9 -99.99 -9.99
2019/06/18 16:06 EDT    0.33   0.67   10  261   14  86.9  77.9 1012.1 11.7  1.007 -99.9 -99.99 -9.99
2019/06/18 16:12 EDT    0.31   0.66    8  245   13  86.5  77.5 1012.2 11.7  1.007 -99.9 -99.99 -9.99
2019/06/18 16:18 EDT    0.30   0.65    6  240    9  86.7  77.9 1012.3 11.6  1.007 -99.9 -99.99 -9.99
2019/06/18 16:24 EDT    0.28   0.64    6  229   10  86.7  77.4 1012.3 11.7  1.007 -99.9 -99.99 -9.99
2019/06/18 16:30 EDT    0.27   0.63    7  241   10  86.5  77.4 1012.5 11.7  1.007 -99.9 -99.99 -9.99
2019/06/18 16:36 EDT    0.26   0.62    7  238   11  86.2  77.4 1012.4 11.7  1.007 -99.9 -99.99 -9.99
2019/06/18 16:42 EDT    0.26   0.61    6  247    8  86.2  77.5 1012.2 11.6  1.007 -99.9 -99.99 -9.99
2019/06/18 16:48 EDT    0.26   0.60    6  244    9  85.8  77.9 1012.3 11.5  1.006 -99.9 -99.99 -9.99
2019/06/18 16:54 EDT    0.26   0.60   15  230   24  83.5  77.9 1012.3 11.4  1.006 -99.9 -99.99 -9.99
2019/06/18 17:00 EDT    0.26   0.61   15  237   18  81.5  78.1 1012.3 11.3  1.006 -99.9 -99.99 -9.99
2019/06/18 17:06 EDT    0.27   0.62   15  231   19  79.5  78.1 1012.5 11.3  1.006 -99.9 -99.99 -9.99
2019/06/18 17:12 EDT    0.28   0.63   12  251   19  75.9  77.9 1012.5 11.3  1.006 -99.9 -99.99 -9.99
2019/06/18 17:18 EDT    0.29   0.63   10  263   15  75.6  77.7 1012.7 11.4  1.006 -99.9 -99.99 -9.99
2019/06/18 17:24 EDT    0.30   0.64    8  242   13  74.8  77.7 1012.6 11.4  1.006 -99.9 -99.99 -9.99
2019/06/18 17:30 EDT    0.32   0.68    8  245    9  74.7  77.7 1012.4 11.4  1.006 -99.9 -99.99 -9.99
2019/06/18 17:36 EDT    0.34   0.69    8  222   11  74.7  77.7 1012.4 11.3  1.006 -99.9 -99.99 -9.99
2019/06/18 17:42 EDT    0.36   0.70    8  219   11  74.7  77.7 1012.4 11.3  1.006 -99.9 -99.99 -9.99
2019/06/18 17:48 EDT    0.39   0.72    8  219   10  74.7  77.7 1012.5 11.3  1.006 -99.9 -99.99 -9.99
2019/06/18 17:54 EDT    0.42   0.74    8  219   10  74.7  77.7 1012.5 11.3  1.006 -99.9 -99.99 -9.99
2019/06/18 18:00 EDT    0.45   0.77    8  222    9  74.8  77.5 1012.6 11.4  1.006 -99.9 -99.99 -9.99
2019/06/18 18:06 EDT    0.48   0.81    6  231    8  74.7  77.5 1012.6 11.4  1.006 -99.9 -99.99 -9.99
2019/06/18 18:12 EDT    0.52   0.86    7  234    9  75.2  77.5 1012.6 11.3  1.006 -99.9 -99.99 -9.99
2019/06/18 18:18 EDT    0.56   0.91    7  236   10  75.6  77.5 1012.6 11.3  1.006 -99.9 -99.99 -9.99
2019/06/18 18:24 EDT    0.60   0.96    6  230   10  75.4  77.5 1012.5 11.3  1.006 -99.9 -99.99 -9.99
2019/06/18 18:30 EDT    0.64   0.98    6  229    8  75.0  77.5 1012.5 11.3  1.006 -99.9 -99.99 -9.99
2019/06/18 18:36 EDT    0.69   1.01    5  238    7  74.8  77.5 1012.3 11.4  1.006 -99.9 -99.99 -9.99
2019/06/18 18:42 EDT    0.73   1.06    5  235    7  74.7  77.5 1012.4 11.4  1.006 -99.9 -99.99 -9.99
2019/06/18 18:48 EDT    0.78   1.13    4  234    6  74.5  77.5 1012.5 11.3  1.006 -99.9 -99.99 -9.99
2019/06/18 18:54 EDT    0.83   1.19    3  247    5  74.5  77.5 1012.5 11.4  1.006 -99.9 -99.99 -9.99
2019/06/18 19:00 EDT    0.89   1.25    4  261    4  74.3  77.7 1012.6 11.3  1.006 -99.9 -99.99 -9.99
2019/06/18 19:06 EDT    0.94   1.30    4  295    4  74.5  77.5 1012.7 11.3  1.006 -99.9 -99.99 -9.99
2019/06/18 19:12 EDT    1.00   1.35    3  315    4  74.7  77.5 1012.7 11.4  1.006 -99.9 -99.99 -9.99
2019/06/18 19:18 EDT    1.06   1.40    2  265    4  74.8  77.5 1012.6 11.4  1.006 -99.9 -99.99 -9.99
2019/06/18 19:24 EDT    1.11   1.46    3  203    3  74.7  77.5 1012.6 11.4  1.006 -99.9 -99.99 -9.99
2019/06/18 19:30 EDT    1.17   1.57    3  204    4  74.7  77.5 1012.5 11.4  1.006 -99.9 -99.99 -9.99
2019/06/18 19:36 EDT    1.24   1.55    4  216    4  74.8  77.5 1012.5 11.5  1.006 -99.9 -99.99 -9.99
2019/06/18 19:42 EDT    1.30   1.60    4  208    5  74.7  77.7 1012.4 11.5  1.006 -99.9 -99.99 -9.99
2019/06/18 19:48 EDT    1.36   1.68    6  195    7  75.0  77.7 1012.4 11.5  1.006 -99.9 -99.99 -9.99
2019/06/18 19:54 EDT    1.43   1.77    6  206    7  74.8  77.7 1012.4 11.5  1.007 -99.9 -99.99 -9.99
2019/06/18 20:00 EDT    1.49   1.83    6  216    7  74.8  77.7 1012.4 11.6  1.007 -99.9 -99.99 -9.99
2019/06/18 20:06 EDT    1.55   1.95    6  224    7  74.7  77.9 1012.6 11.6  1.007 -99.9 -99.99 -9.99
2019/06/18 20:12 EDT    1.62   1.95    6  253    7  74.7  77.9 1012.9 11.7  1.007 -99.9 -99.99 -9.99
2019/06/18 20:18 EDT    1.68   2.01    5  274    7  74.5  77.7 1012.9 11.7  1.007 -99.9 -99.99 -9.99
2019/06/18 20:24 EDT    1.75   2.08    5  274    6  74.7  77.5 1013.0 11.7  1.007 -99.9 -99.99 -9.99
2019/06/18 20:30 EDT    1.81   2.14    4  258    6  74.5  77.5 1013.0 11.7  1.007 -99.9 -99.99 -9.99
2019/06/18 20:36 EDT    1.87   2.21    4  235    5  74.5  77.2 1013.0 11.8  1.007 -99.9 -99.99 -9.99
2019/06/18 20:42 EDT    1.94   2.26    4  241    5  74.7  77.2 1013.2 11.7  1.007 -99.9 -99.99 -9.99
2019/06/18 20:48 EDT    2.00   2.30    3  221    5  74.8  77.0 1013.4 11.9  1.007 -99.9 -99.99 -9.99
2019/06/18 20:54 EDT    2.06   2.35    7  211    8  74.8  77.0 1013.7 11.9  1.007 -99.9 -99.99 -9.99
2019/06/18 21:00 EDT    2.12   2.41    7  217   10  74.7  76.8 1013.6 12.0  1.007 -99.9 -99.99 -9.99
2019/06/18 21:06 EDT    2.17   2.48    8  239   10  74.8  76.8 1013.3 12.0  1.007 -99.9 -99.99 -9.99
2019/06/18 21:12 EDT    2.23   2.53    9  228   10  74.7  76.6 1013.4 12.0  1.007 -99.9 -99.99 -9.99
2019/06/18 21:18 EDT    2.28   2.60   10  229   13  74.5  76.5 1013.5 12.0  1.007 -99.9 -99.99 -9.99
2019/06/18 21:24 EDT    2.33   2.66    9  229   12  74.7  76.5 1013.6 12.0  1.007 -99.9 -99.99 -9.99
2019/06/18 21:30 EDT    2.38   2.72   10  233   11  74.8  76.6 1013.5 12.0  1.007 -99.9 -99.99 -9.99
2019/06/18 21:36 EDT    2.43   2.77    9  240   12  74.8  76.5 1013.4 12.0  1.007 -99.9 -99.99 -9.99
2019/06/18 21:42 EDT    2.48   2.82   10  253   12  75.0  76.6 1013.4 12.0  1.007 -99.9 -99.99 -9.99
2019/06/18 21:48 EDT    2.52   2.85    7  246   11  74.8  76.6 1013.4 12.0  1.007 -99.9 -99.99 -9.99
2019/06/18 21:54 EDT    2.56   2.91    8  235   11  74.5  76.6 1013.4 12.0  1.007 -99.9 -99.99 -9.99
2019/06/18 22:00 EDT    2.59   2.94    7  227    9  74.1  76.3 1013.5 12.1  1.007 -99.9 -99.99 -9.99
2019/06/18 22:06 EDT    2.62   3.00    7  227    8  74.1  75.9 1013.6 12.2  1.007 -99.9 -99.99 -9.99
2019/06/18 22:12 EDT    2.65   3.03    8  221    9  74.1  75.9 1013.8 12.2  1.007 -99.9 -99.99 -9.99
2019/06/18 22:18 EDT    2.68   3.08    7  214    9  73.9  75.9 1013.8 12.2  1.007 -99.9 -99.99 -9.99
2019/06/18 22:24 EDT    2.70   3.13    5  216    8  73.9  75.9 1013.7 12.2  1.007 -99.9 -99.99 -9.99
2019/06/18 22:30 EDT    2.72   3.17    4  208    5  74.1  75.7 1013.8 12.3  1.007 -99.9 -99.99 -9.99
2019/06/18 22:36 EDT    2.74   3.20    6  177    8  74.3  75.7 1013.9 12.3  1.007 -99.9 -99.99 -9.99
2019/06/18 22:42 EDT    2.76   3.23    4  165    7  74.5  75.7 1013.7 12.3  1.007 -99.9 -99.99 -9.99
2019/06/18 22:48 EDT    2.77   3.24    6  188    7  74.7  75.6 1013.9 12.3  1.007 -99.9 -99.99 -9.99
2019/06/18 22:54 EDT    2.77   3.26    4  177    7  74.5  75.6 1013.7 12.3  1.007 -99.9 -99.99 -9.99
2019/06/18 23:00 EDT    2.78   3.26    5  177    8  74.7  75.6 1013.6 12.3  1.007 -99.9 -99.99 -9.99
2019/06/18 23:06 EDT    2.78   3.26    5  177    6  74.7  75.7 1013.5 12.2  1.007 -99.9 -99.99 -9.99
2019/06/18 23:12 EDT    2.78   3.25    4  183    6  74.7  75.7 1013.5 12.2  1.007 -99.9 -99.99 -9.99
2019/06/18 23:18 EDT    2.77   3.24    7  202   10  74.3  75.7 1013.4 12.2  1.007 -99.9 -99.99 -9.99
2019/06/18 23:24 EDT    2.76   3.22    6  203    9  74.1  75.6 1013.4 12.3  1.007 -99.9 -99.99 -9.99
2019/06/18 23:30 EDT    2.75   3.21    5  221    7  73.9  75.6 1013.5 12.3  1.007 -99.9 -99.99 -9.99
2019/06/18 23:36 EDT    2.73   3.19    4  221    6  73.6  75.9 1013.4 12.2  1.007 -99.9 -99.99 -9.99
2019/06/18 23:42 EDT    2.72   3.16    5  235    6  73.4  75.9 1013.5 12.1  1.007 -99.9 -99.99 -9.99
2019/06/18 23:48 EDT    2.69   3.11    4  229    7  73.4  75.9 1013.5 12.1  1.007 -99.9 -99.99 -9.99
2019/06/18 23:54 EDT    2.67   3.07    4  231    6  73.2  75.7 1013.6 12.2  1.007 -99.9 -99.99 -9.99
2019/06/19 00:00 EDT    2.64   3.05    5  235    6  73.0  75.9 1013.5 12.1  1.007 -99.9 -99.99 -9.99
2019/06/19 00:06 EDT    2.62   3.04    5  232    7  72.9  76.1 1013.5 12.1  1.007 -99.9 -99.99 -9.99
2019/06/19 00:12 EDT    2.58   3.02    7  235    9  72.9  76.3 1013.4 12.0  1.007 -99.9 -99.99 -9.99
2019/06/19 00:18 EDT    2.55   3.00    7  240    9  73.2  76.5 1013.3 11.9  1.007 -99.9 -99.99 -9.99
2019/06/19 00:24 EDT    2.51   2.97    7  246   10  73.2  76.5 1013.2 11.9  1.007 -99.9 -99.99 -9.99
2019/06/19 00:30 EDT    2.47   2.94    7  239   11  73.0  76.3 1013.1 12.0  1.007 -99.9 -99.99 -9.99
2019/06/19 00:36 EDT    2.43   2.91    6  232    8  73.0  76.5 1013.1 12.0  1.007 -99.9 -99.99 -9.99
2019/06/19 00:42 EDT    2.39   2.86    6  229    8  72.7  76.6 1013.1 11.9  1.007 -99.9 -99.99 -9.99
2019/06/19 00:48 EDT    2.35   2.81    6  234    8  72.5  76.8 1013.1 11.8  1.007 -99.9 -99.99 -9.99
2019/06/19 00:54 EDT    2.30   2.78    5  244    9  72.7  76.6 1013.0 11.8  1.007 -99.9 -99.99 -9.99
2019/06/19 01:00 EDT    2.25   2.74    5  229    8  72.3  76.8 1013.0 11.8  1.007 -99.9 -99.99 -9.99
2019/06/19 01:06 EDT    2.20   2.70    3  217    6  72.3  77.2 1012.8 11.5  1.007 -99.9 -99.99 -9.99
2019/06/19 01:12 EDT    2.15   2.65    3  220    5  72.3  77.2 1012.7 11.5  1.007 -99.9 -99.99 -9.99
2019/06/19 01:18 EDT    2.10   2.61    3  218    4  72.1  76.5 1012.7 11.7  1.007 -99.9 -99.99 -9.99
2019/06/19 01:24 EDT    2.04   2.57    3  221    4  72.1  75.7 1012.6 12.1  1.007 -99.9 -99.99 -9.99
2019/06/19 01:30 EDT    1.99   2.52    3  234    4  72.1  75.9 1012.6 12.1  1.007 -99.9 -99.99 -9.99
2019/06/19 01:36 EDT    1.93   2.47    4  240    5  72.3  75.9 1012.5 12.0  1.007 -99.9 -99.99 -9.99
2019/06/19 01:42 EDT    1.87   2.41    3  240    4  72.3  76.8 1012.4 11.8  1.007 -99.9 -99.99 -9.99
2019/06/19 01:48 EDT    1.81   2.35    2  236    3  72.3  76.6 1012.3 11.8  1.007 -99.9 -99.99 -9.99
2019/06/19 01:54 EDT    1.76   2.29    2  213    3  72.3  76.5 1012.3 11.9  1.007 -99.9 -99.99 -9.99
2019/06/19 02:00 EDT    1.70   2.23    2  201    4  72.3  76.6 1012.2 11.9  1.007 -99.9 -99.99 -9.99
2019/06/19 02:06 EDT    1.63   2.17    2  192    4  72.3  76.8 1012.1 11.8  1.007 -99.9 -99.99 -9.99
2019/06/19 02:12 EDT    1.57   2.10    5  168    6  72.5  76.8 1011.9 11.8  1.007 -99.9 -99.99 -9.99
2019/06/19 02:18 EDT    1.51   2.04    5  181    6  72.5  77.0 1011.8 11.7  1.007 -99.9 -99.99 -9.99
2019/06/19 02:24 EDT    1.45   1.98    4  178    5  72.5  77.0 1011.7 11.7  1.007 -99.9 -99.99 -9.99
2019/06/19 02:30 EDT    1.39   1.92    4  193    6  72.5  77.2 1011.7 11.6  1.007 -99.9 -99.99 -9.99
2019/06/19 02:36 EDT    1.33   1.87    3  178    5  72.7  77.2 1011.7 11.6  1.007 -99.9 -99.99 -9.99
2019/06/19 02:42 EDT    1.27   1.81    4  166    5  72.5  77.2 1011.5 11.6  1.007 -99.9 -99.99 -9.99
2019/06/19 02:48 EDT    1.21   1.75    4  171    5  72.7  77.0 1011.4 11.6  1.007 -99.9 -99.99 -9.99
2019/06/19 02:54 EDT    1.15   1.69    4  179    5  72.7  77.0 1011.3 11.7  1.007 -99.9 -99.99 -9.99
2019/06/19 03:00 EDT    1.09   1.67    3  187    4  72.7  77.0 1011.4 11.7  1.007 -99.9 -99.99 -9.99
2019/06/19 03:06 EDT    1.03   1.56    3  176    4  72.7  77.0 1011.2 11.7  1.007 -99.9 -99.99 -9.99
2019/06/19 03:12 EDT    0.97   1.50    1  187    4  72.9  76.8 1011.1 11.8  1.007 -99.9 -99.99 -9.99
2019/06/19 03:18 EDT    0.91   1.43    1  240    2  72.7  76.8 1011.1 11.8  1.007 -99.9 -99.99 -9.99
2019/06/19 03:24 EDT    0.86   1.37    2  245    3  72.5  76.6 1011.2 11.8  1.007 -99.9 -99.99 -9.99
2019/06/19 03:30 EDT    0.80   1.32    2  197    2  72.7  76.6 1011.2 11.8  1.007 -99.9 -99.99 -9.99
2019/06/19 03:36 EDT    0.75   1.27    2  159    3  72.7  76.5 1011.2 11.7  1.007 -99.9 -99.99 -9.99
2019/06/19 03:42 EDT    0.70   1.23    2  173    2  72.7  76.5 1011.2 11.7  1.007 -99.9 -99.99 -9.99
2019/06/19 03:48 EDT    0.65   1.19    1  214    3  72.9  76.3 1011.2 11.8  1.007 -99.9 -99.99 -9.99
2019/06/19 03:54 EDT    0.60   1.15    2  164    3  72.9  76.5 1010.9 11.7  1.007 -99.9 -99.99 -9.99
2019/06/19 04:00 EDT    0.56   1.10    2  157    3  72.9  76.3 1010.9 11.7  1.007 -99.9 -99.99 -9.99
2019/06/19 04:06 EDT    0.51   1.06    2  176    2  72.9  76.1 1011.0 11.9  1.007 -99.9 -99.99 -9.99
2019/06/19 04:12 EDT    0.47   1.01    2  187    3  73.0  76.1 1010.9 11.9  1.007 -99.9 -99.99 -9.99
2019/06/19 04:18 EDT    0.43   0.98    2  217    2  73.0  76.1 1010.9 11.9  1.007 -99.9 -99.99 -9.99
2019/06/19 04:24 EDT    0.40   0.95    2  227    3  72.9  76.1 1010.9 11.9  1.007 -99.9 -99.99 -9.99
2019/06/19 04:30 EDT    0.36   0.91    1  235    2  72.7  76.3 1010.8 11.7  1.007 -99.9 -99.99 -9.99
2019/06/19 04:36 EDT    0.33   0.88    2  186    3  72.9  76.5 1010.8 11.7  1.007 -99.9 -99.99 -9.99
2019/06/19 04:42 EDT    0.30   0.85    1  186    2  73.0  76.3 1010.8 11.7  1.007 -99.9 -99.99 -9.99
2019/06/19 04:48 EDT    0.28   0.82    3  215    4  73.0  76.1 1010.8 11.7  1.007 -99.9 -99.99 -9.99
2019/06/19 04:54 EDT    0.25   0.79    4  222    5  73.0  76.1 1010.8 11.7  1.007 -99.9 -99.99 -9.99
2019/06/19 05:00 EDT    0.23   0.77    4  218    5  73.0  76.3 1010.7 11.7  1.007 -99.9 -99.99 -9.99
2019/06/19 05:06 EDT    0.21   0.75    3  200    5  73.2  76.3 1010.6 11.7  1.007 -99.9 -99.99 -9.99
2019/06/19 05:12 EDT    0.20   0.72    4  204    6  73.4  76.1 1010.6 11.7  1.007 -99.9 -99.99 -9.99
2019/06/19 05:18 EDT    0.19   0.71    4  202    5  73.6  76.3 1010.6 11.6  1.007 -99.9 -99.99 -9.99
2019/06/19 05:24 EDT    0.18   0.70    4  214    6  73.6  76.5 1010.6 11.5  1.007 -99.9 -99.99 -9.99
2019/06/19 05:30 EDT    0.17   0.70    4  219    6  73.6  76.5 1010.6 11.5  1.007 -99.9 -99.99 -9.99
2019/06/19 05:36 EDT    0.17   0.70    3  218    4  73.6  76.5 1010.6 11.5  1.007 -99.9 -99.99 -9.99
2019/06/19 05:42 EDT    0.17   0.70    5  205    7  73.6  76.5 1010.6 11.5  1.007 -99.9 -99.99 -9.99
2019/06/19 05:48 EDT    0.17   0.72    3  199    5  73.8  76.5 1010.5 11.5  1.007 -99.9 -99.99 -9.99
2019/06/19 05:54 EDT    0.17   0.74    4  206    7  73.8  76.5 1010.5 11.5  1.007 -99.9 -99.99 -9.99
2019/06/19 06:00 EDT    0.18   0.76    4  222    6  73.8  76.6 1010.5 11.4  1.007 -99.9 -99.99 -9.99
2019/06/19 06:06 EDT    0.19   0.76    4  237    4  73.8  76.6 1010.5 11.4  1.007 -99.9 -99.99 -9.99
2019/06/19 06:12 EDT    0.20   0.78    4  246    5  73.8  76.6 1010.5 11.4  1.007 -99.9 -99.99 -9.99
2019/06/19 06:18 EDT    0.22   0.80    4  239    4  73.8  76.6 1010.5 11.4  1.007 -99.9 -99.99 -9.99
2019/06/19 06:24 EDT    0.23   0.82    3  248    4  73.8  76.6 1010.6 11.3  1.006 -99.9 -99.99 -9.99
2019/06/19 06:30 EDT    0.25   0.85    3  253    4  73.8  76.6 1010.6 11.3  1.006 -99.9 -99.99 -9.99
2019/06/19 06:36 EDT    0.28   0.87    3  246    4  73.8  76.6 1010.7 11.2  1.006 -99.9 -99.99 -9.99
2019/06/19 06:42 EDT    0.30   0.91    2  249    3  73.8  76.6 1010.7 11.3  1.006 -99.9 -99.99 -9.99
2019/06/19 06:48 EDT    0.33   1.00    1  240    3  73.8  76.6 1010.7 11.3  1.006 -99.9 -99.99 -9.99
2019/06/19 06:54 EDT    0.36   0.96    2  226    3  73.9  76.6 1010.7 11.3  1.006 -99.9 -99.99 -9.99
2019/06/19 07:00 EDT    0.39   0.99    2  224    3  73.9  76.6 1010.7 11.2  1.006 -99.9 -99.99 -9.99
2019/06/19 07:06 EDT    0.43   1.02    2  223    4  73.9  76.6 1010.7 11.3  1.006 -99.9 -99.99 -9.99
2019/06/19 07:12 EDT    0.46   1.05    1  250    4  74.1  76.6 1010.7 11.3  1.006 -99.9 -99.99 -9.99
2019/06/19 07:18 EDT    0.50   1.07    2  199    4  74.1  76.6 1010.7 11.3  1.006 -99.9 -99.99 -9.99
2019/06/19 07:24 EDT    0.54   1.11    3  186    4  74.5  76.6 1010.7 11.2  1.006 -99.9 -99.99 -9.99
2019/06/19 07:30 EDT    0.59   1.14    5  193    6  74.7  76.6 1010.7 11.2  1.006 -99.9 -99.99 -9.99
2019/06/19 07:36 EDT    0.63   1.17    5  201    7  74.7  76.6 1010.7 11.2  1.006 -99.9 -99.99 -9.99
2019/06/19 07:42 EDT    0.68   1.21    4  198    6  74.8  76.6 1010.7 11.2  1.006 -99.9 -99.99 -9.99
2019/06/19 07:48 EDT    0.72   1.25    4  210    6  75.2  76.6 1010.8 11.2  1.006 -99.9 -99.99 -9.99
2019/06/19 07:54 EDT    0.77   1.29    4  210    6  75.2  76.6 1010.7 11.2  1.006 -99.9 -99.99 -9.99
2019/06/19 08:00 EDT    0.82   1.35    4  212    6  75.4  76.6 1010.8 11.2  1.006 -99.9 -99.99 -9.99
2019/06/19 08:06 EDT    0.88   1.40    4  215    6  75.6  76.6 1010.8 11.3  1.006 -99.9 -99.99 -9.99
2019/06/19 08:12 EDT    0.93   1.46    4  206    7  75.6  76.6 1010.9 11.3  1.006 -99.9 -99.99 -9.99
2019/06/19 08:18 EDT    0.98   1.52    4  206    6  75.7  76.6 1010.9 11.4  1.007 -99.9 -99.99 -9.99
2019/06/19 08:24 EDT    1.04   1.57    5  206    6  75.9  76.5 1010.9 11.4  1.007 -99.9 -99.99 -9.99
2019/06/19 08:30 EDT    1.09   1.62    4  201    7  76.1  76.5 1010.9 11.5  1.007 -99.9 -99.99 -9.99
2019/06/19 08:36 EDT    1.15   1.68    4  191    6  76.3  76.5 1010.9 11.5  1.007 -99.9 -99.99 -9.99
2019/06/19 08:42 EDT    1.21   1.73    4  201    6  76.3  76.5 1011.0 11.5  1.007 -99.9 -99.99 -9.99
2019/06/19 08:48 EDT    1.26   1.78    5  208    9  76.5  76.5 1011.0 11.5  1.007 -99.9 -99.99 -9.99
2019/06/19 08:54 EDT    1.32   1.83    4  198    7  76.5  76.5 1011.0 11.5  1.007 -99.9 -99.99 -9.99
2019/06/19 09:00 EDT    1.37   1.89    5  205    8  76.5  76.5 1011.0 11.4  1.007 -99.9 -99.99 -9.99
2019/06/19 09:06 EDT    1.43   1.95    5  193    7  76.5  76.5 1011.0 11.5  1.007 -99.9 -99.99 -9.99
2019/06/19 09:12 EDT    1.49   2.02    5  195    6  76.5  76.5 1010.9 11.5  1.007 -99.9 -99.99 -9.99
2019/06/19 09:18 EDT    1.54   2.09    5  197    7  76.6  76.5 1010.9 11.6  1.007 -99.9 -99.99 -9.99
2019/06/19 09:24 EDT    1.60   2.15    4  209    7  76.6  76.3 1010.9 11.6  1.007 -99.9 -99.99 -9.99
2019/06/19 09:30 EDT    1.65   2.20    4  198    7  76.6  76.3 1011.0 11.6  1.007 -99.9 -99.99 -9.99
2019/06/19 09:36 EDT    1.70   2.26    4  202    7  76.6  76.3 1011.0 11.6  1.007 -99.9 -99.99 -9.99
2019/06/19 09:42 EDT    1.75   2.33    5  210    7  76.5  76.3 1010.9 11.6  1.007 -99.9 -99.99 -9.99
2019/06/19 09:48 EDT    1.80   2.39    6  219    9  76.5  76.3 1010.9 11.6  1.007 -99.9 -99.99 -9.99
2019/06/19 09:54 EDT    1.85   2.45    5  225    7  76.5  76.1 1010.9 11.6  1.007 -99.9 -99.99 -9.99
2019/06/19 10:00 EDT    1.89   2.50    4  233    7  76.5  76.1 1010.9 11.7  1.007 -99.9 -99.99 -9.99
2019/06/19 10:06 EDT    1.94   2.56    4  255    5  76.5  76.1 1010.9 11.7  1.007 -99.9 -99.99 -9.99
2019/06/19 10:12 EDT    1.98   2.60    3  267    4  76.5  76.1 1010.9 11.6  1.007 -99.9 -99.99 -9.99
2019/06/19 10:18 EDT    2.02   2.64    3  279    5  76.5  76.1 1010.8 11.6  1.007 -99.9 -99.99 -9.99
2019/06/19 10:24 EDT    2.05   2.68    3  254    5  76.6  75.9 1010.7 11.6  1.007 -99.9 -99.99 -9.99
2019/06/19 10:30 EDT    2.08   2.72    4  263    5  76.8  75.9 1010.7 11.7  1.007 -99.9 -99.99 -9.99
2019/06/19 10:36 EDT    2.12   2.75    5  249    7  77.0  75.7 1010.6 11.8  1.007 -99.9 -99.99 -9.99
2019/06/19 10:42 EDT    2.14   2.78    5  239    7  77.2  75.7 1010.5 11.8  1.007 -99.9 -99.99 -9.99
2019/06/19 10:48 EDT    2.17   2.80    5  250    7  77.5  75.6 1010.5 11.9  1.007 -99.9 -99.99 -9.99
2019/06/19 10:54 EDT    2.19   2.83    6  243    7  77.7  75.4 1010.5 11.9  1.007 -99.9 -99.99 -9.99
2019/06/19 11:00 EDT    2.21   2.85    6  244    8  77.9  75.6 1010.4 11.9  1.007 -99.9 -99.99 -9.99
2019/06/19 11:06 EDT    2.23   2.86    4  236    9  78.4  75.6 1010.3 11.9  1.007 -99.9 -99.99 -9.99
2019/06/19 11:12 EDT    2.24   2.88    4  279    7  78.6  75.7 1010.2 11.7  1.007 -99.9 -99.99 -9.99
2019/06/19 11:18 EDT    2.25   2.90    5  271    8  78.4  75.7 1010.2 11.8  1.007 -99.9 -99.99 -9.99
2019/06/19 11:24 EDT    2.26   2.90    5  275    7  78.6  75.6 1010.1 11.9  1.007 -99.9 -99.99 -9.99
2019/06/19 11:30 EDT    2.26   2.91    5  262    7  78.8  75.7 1010.1 11.8  1.007 -99.9 -99.99 -9.99
2019/06/19 11:36 EDT    2.26   2.91    5  277    7  79.2  75.6 1010.1 11.8  1.007 -99.9 -99.99 -9.99
2019/06/19 11:42 EDT    2.26   2.91    4  262    8  79.7  75.7 1010.0 11.8  1.007 -99.9 -99.99 -9.99
2019/06/19 11:48 EDT    2.26   2.90    7  266    9  79.5  75.7 1010.0 11.9  1.007 -99.9 -99.99 -9.99
2019/06/19 11:54 EDT    2.25   2.88    5  252   10  79.7  75.6 1010.0 11.9  1.007 -99.9 -99.99 -9.99
2019/06/19 12:00 EDT    2.24   2.87    5  252    6  80.1  75.7 1009.9 11.9  1.007 -99.9 -99.99 -9.99
2019/06/19 12:06 EDT    2.23   2.85    5  261    8  80.1  75.6 1009.8 11.9  1.007 -99.9 -99.99 -9.99
2019/06/19 12:12 EDT    2.21   2.83    6  268    7  80.1  75.6 1009.7 12.0  1.007 -99.9 -99.99 -9.99
2019/06/19 12:18 EDT    2.19   2.81    5  249    7  80.2  75.6 1009.7 12.0  1.007 -99.9 -99.99 -9.99
2019/06/19 12:24 EDT    2.17   2.78    4  253    6  80.4  75.6 1009.7 12.0  1.007 -99.9 -99.99 -9.99
2019/06/19 12:30 EDT    2.15   2.75    5  265    6  80.2  75.4 1009.6 12.1  1.007 -99.9 -99.99 -9.99
2019/06/19 12:36 EDT    2.12   2.72    6  254    8  80.1  75.2 1009.5 12.1  1.007 -99.9 -99.99 -9.99
2019/06/19 12:42 EDT    2.10   2.70    5  257    7  80.2  75.7 1009.5 11.9  1.007 -99.9 -99.99 -9.99
2019/06/19 12:48 EDT    2.07   2.66    5  256    7  80.2  75.7 1009.4 11.9  1.007 -99.9 -99.99 -9.99
2019/06/19 12:54 EDT    2.04   2.61    4  291    5  80.2  76.1 1009.3 11.7  1.007 -99.9 -99.99 -9.99
2019/06/19 13:00 EDT    2.00   2.57    3  260    5  80.4  76.3 1009.1 11.6  1.007 -99.9 -99.99 -9.99
2019/06/19 13:06 EDT    1.97   2.52    2  265    4  80.8  76.5 1009.1 11.5  1.007 -99.9 -99.99 -9.99
2019/06/19 13:12 EDT    1.93   2.47    3  188    4  81.3  76.5 1009.1 11.5  1.007 -99.9 -99.99 -9.99
2019/06/19 13:18 EDT    1.89   2.43    5  215    7  81.1  77.0 1008.9 11.3  1.006 -99.9 -99.99 -9.99
2019/06/19 13:24 EDT    1.85   2.39    2  229    5  81.7  77.0 1008.8 11.3  1.006 -99.9 -99.99 -9.99
2019/06/19 13:30 EDT    1.81   2.36    6  191    8  81.7  77.0 1008.9 11.3  1.006 -99.9 -99.99 -9.99
2019/06/19 13:36 EDT    1.76   2.32    7  203    9  81.7  76.8 1008.8 11.3  1.006 -99.9 -99.99 -9.99
2019/06/19 13:42 EDT    1.72   2.29    6  234    8  81.9  75.9 1008.8 11.7  1.007 -99.9 -99.99 -9.99
2019/06/19 13:48 EDT    1.67   2.26    6  204    9  81.9  75.6 1008.7 11.9  1.007 -99.9 -99.99 -9.99
2019/06/19 13:54 EDT    1.63   2.22    7  204   12  81.9  76.1 1008.7 11.7  1.007 -99.9 -99.99 -9.99
2019/06/19 14:00 EDT    1.58   2.18    6  202    9  82.0  76.1 1008.6 11.7  1.007 -99.9 -99.99 -9.99
2019/06/19 14:06 EDT    1.53   2.14    5  205    7  82.0  76.6 1008.5 11.5  1.007 -99.9 -99.99 -9.99
2019/06/19 14:12 EDT    1.48   2.10    5  183    6  82.0  76.6 1008.4 11.5  1.007 -99.9 -99.99 -9.99
2019/06/19 14:18 EDT    1.43   2.05    5  180    7  81.9  76.6 1008.2 11.5  1.007 -99.9 -99.99 -9.99
2019/06/19 14:24 EDT    1.38   2.01    5  160    6  81.9  76.5 1008.0 11.6  1.007 -99.9 -99.99 -9.99
2019/06/19 14:30 EDT    1.33   1.96    5  170    6  82.0  76.5 1008.0 11.6  1.007 -99.9 -99.99 -9.99
2019/06/19 14:36 EDT    1.28   1.91    5  159    7  82.0  76.3 1008.0 11.6  1.007 -99.9 -99.99 -9.99
2019/06/19 14:42 EDT    1.23   1.86    6  169    8  81.9  76.5 1007.9 11.5  1.007 -99.9 -99.99 -9.99
2019/06/19 14:48 EDT    1.18   1.80    4  156    6  82.2  76.5 1007.9 11.5  1.007 -99.9 -99.99 -9.99
2019/06/19 14:54 EDT    1.13   1.75    5  232    8  82.2  77.2 1007.8 11.4  1.006 -99.9 -99.99 -9.99
2019/06/19 15:00 EDT    1.08   1.71    4  168    5  82.8  77.4 1007.7 11.3  1.006 -99.9 -99.99 -9.99
2019/06/19 15:06 EDT    1.03   1.66    3  191    6  83.1  77.2 1007.7 11.4  1.006 -99.9 -99.99 -9.99
2019/06/19 15:12 EDT    0.98   1.61    2  306    4  82.6  77.2 1007.6 11.4  1.006 -99.9 -99.99 -9.99
2019/06/19 15:18 EDT    0.93   1.57    1    7    2  83.8  77.0 1007.5 11.4  1.006 -99.9 -99.99 -9.99
2019/06/19 15:24 EDT    0.89   1.52    2   36    3  83.8  76.8 1007.5 11.4  1.007 -99.9 -99.99 -9.99
2019/06/19 15:30 EDT    0.84   1.47    1   55    3  83.5  77.0 1007.6 11.4  1.007 -99.9 -99.99 -9.99
2019/06/19 15:36 EDT    0.79   1.43    2   51    2  83.5  77.0 1007.5 11.4  1.007 -99.9 -99.99 -9.99
2019/06/19 15:42 EDT    0.75   1.39    3   56    3  83.3  77.2 1007.4 11.4  1.007 -99.9 -99.99 -9.99
2019/06/19 15:48 EDT    0.71   1.36    4   65    5  83.1  77.0 1007.3 11.4  1.007 -99.9 -99.99 -9.99
2019/06/19 15:54 EDT    0.67   1.32    4   86    6  82.4  77.2 1007.2 11.4  1.006 -99.9 -99.99 -9.99
2019/06/19 16:00 EDT    0.63   1.29    3   62    5  82.2  77.2 1007.2 11.4  1.007 -99.9 -99.99 -9.99
2019/06/19 16:06 EDT    0.59   1.27    8   71    9  81.3  77.5 1007.2 11.4  1.006 -99.9 -99.99 -9.99
2019/06/19 16:12 EDT    0.56   1.24   10   79   11  80.4  77.4 1007.2 11.3  1.006 -99.9 -99.99 -9.99
2019/06/19 16:18 EDT    0.52   1.22   10   78   11  80.4  77.5 1007.1 11.4  1.006 -99.9 -99.99 -9.99
2019/06/19 16:24 EDT    0.49   1.19   10   75   11  80.4  77.5 1006.9 11.4  1.006 -99.9 -99.99 -9.99
2019/06/19 16:30 EDT    0.46   1.17   10   74   11  80.4  77.5 1006.9 11.4  1.006 -99.9 -99.99 -9.99
2019/06/19 16:36 EDT    0.44   1.15    9   81   10  80.4  77.9 1006.8 11.4  1.006 -99.9 -99.99 -9.99
2019/06/19 16:42 EDT    0.41   1.14    9   81   10  80.1  78.1 1006.8 11.3  1.006 -99.9 -99.99 -9.99
2019/06/19 16:48 EDT    0.39   1.12   10   77   11  80.1  78.1 1006.7 11.3  1.006 -99.9 -99.99 -9.99
2019/06/19 16:54 EDT    0.37   1.10    9  104   11  79.9  77.7 1006.7 11.4  1.006 -99.9 -99.99 -9.99
2019/06/19 17:00 EDT    0.36   1.08    7  123    9  80.1  77.2 1006.7 11.5  1.007 -99.9 -99.99 -9.99
2019/06/19 17:06 EDT    0.34   1.06    5  110    7  80.1  77.5 1006.6 11.4  1.006 -99.9 -99.99 -9.99
2019/06/19 17:12 EDT    0.33   1.04    6  101    7  79.5  77.9 1006.8 11.3  1.006 -99.9 -99.99 -9.99
2019/06/19 17:18 EDT    0.33   1.02    7   89    8  79.0  77.7 1006.9 11.3  1.006 -99.9 -99.99 -9.99
2019/06/19 17:24 EDT    0.32   1.01   10   87   11  78.6  78.6 1006.8 11.1  1.006 -99.9 -99.99 -9.99
2019/06/19 17:30 EDT    0.32   1.00    9   93   11  78.4  78.1 1006.7 11.2  1.006 -99.9 -99.99 -9.99
2019/06/19 17:36 EDT    0.32   0.99    8  102   10  78.6  77.9 1006.6 11.2  1.006 -99.9 -99.99 -9.99
2019/06/19 17:42 EDT    0.32   0.99    8  105   12  78.4  77.9 1006.4 11.1  1.006 -99.9 -99.99 -9.99
2019/06/19 17:48 EDT    0.33   1.00   11  156   12  79.0  78.1 1006.4 11.1  1.006 -99.9 -99.99 -9.99
2019/06/19 17:54 EDT    0.34   0.98    7  155   14  79.0  78.1 1006.8 11.1  1.006 -99.9 -99.99 -9.99
2019/06/19 18:00 EDT    0.35   0.97    6  183   10  78.6  78.3 1007.1 11.1  1.006 -99.9 -99.99 -9.99
2019/06/19 18:06 EDT    0.37   0.97   10  215   14  76.8  78.1 1007.3 11.1  1.006 -99.9 -99.99 -9.99
2019/06/19 18:12 EDT    0.38   0.98   14  220   18  74.3  78.3 1007.4 11.0  1.006 -99.9 -99.99 -9.99
2019/06/19 18:18 EDT    0.40   1.01    8  248   16  73.6  78.4 1007.5 10.9  1.006 -99.9 -99.99 -9.99
2019/06/19 18:24 EDT    0.42   1.04    1   18    4  72.9  78.4 1007.2 10.9  1.006 -99.9 -99.99 -9.99
2019/06/19 18:30 EDT    0.45   1.05    2  161    3  73.2  78.4 1007.6 10.9  1.006 -99.9 -99.99 -9.99
2019/06/19 18:36 EDT    0.48   1.08    1   51    2  73.4  78.4 1007.3 10.9  1.006 -99.9 -99.99 -9.99
2019/06/19 18:42 EDT    0.50   1.10    1   46    2  73.8  78.4 1007.1 10.9  1.006 -99.9 -99.99 -9.99
2019/06/19 18:48 EDT    0.54   1.11    2  342    2  73.6  78.3 1006.9 10.9  1.006 -99.9 -99.99 -9.99
2019/06/19 18:54 EDT    0.57   1.12    0  259    2  73.9  77.7 1006.7 11.0  1.006 -99.9 -99.99 -9.99
2019/06/19 19:00 EDT    0.60   1.14    2  191    2  74.5  77.5 1006.9 11.2  1.006 -99.9 -99.99 -9.99
2019/06/19 19:06 EDT    0.64   1.15    2  222    3  74.7  77.9 1007.0 11.1  1.006 -99.9 -99.99 -9.99
2019/06/19 19:12 EDT    0.68   1.19    2  163    2  75.0  76.8 1006.9 11.4  1.007 -99.9 -99.99 -9.99
2019/06/19 19:18 EDT    0.72   1.25    3  164    4  75.4  76.8 1006.7 11.5  1.007 -99.9 -99.99 -9.99
2019/06/19 19:24 EDT    0.76   1.31    4  185    4  75.4  77.2 1006.7 11.5  1.007 -99.9 -99.99 -9.99
2019/06/19 19:30 EDT    0.81   1.38    4  215    5  75.6  77.2 1006.8 11.4  1.006 -99.9 -99.99 -9.99
2019/06/19 19:36 EDT    0.85   1.45    3  219    4  75.7  76.8 1006.8 11.5  1.007 -99.9 -99.99 -9.99
2019/06/19 19:42 EDT    0.90   1.52    3  202    4  76.1  76.8 1006.9 11.5  1.007 -99.9 -99.99 -9.99
2019/06/19 19:48 EDT    0.95   1.63    2  153    4  76.3  77.0 1006.9 11.5  1.007 -99.9 -99.99 -9.99
2019/06/19 19:54 EDT    1.00   1.66    5  131    6  75.7  77.2 1006.9 11.4  1.006 -99.9 -99.99 -9.99
2019/06/19 20:00 EDT    1.05   1.71    2  139    5  75.7  77.2 1006.9 11.4  1.006 -99.9 -99.99 -9.99
2019/06/19 20:06 EDT    1.10   1.76    2  143    4  75.6  77.2 1006.9 11.4  1.006 -99.9 -99.99 -9.99
2019/06/19 20:12 EDT    1.16   1.81    2  157    2  75.4  77.0 1006.8 11.4  1.007 -99.9 -99.99 -9.99
2019/06/19 20:18 EDT    1.21   1.87    2  154    2  75.6  77.0 1006.8 11.5  1.007 -99.9 -99.99 -9.99
2019/06/19 20:24 EDT    1.27   1.92    2  148    2  75.6  77.0 1006.8 11.5  1.007 -99.9 -99.99 -9.99
2019/06/19 20:30 EDT    1.32   1.97    2  144    3  75.7  76.8 1006.8 11.5  1.007 -99.9 -99.99 -9.99
2019/06/19 20:36 EDT    1.38   2.02    2  151    3  75.7  76.8 1006.7 11.5  1.007 -99.9 -99.99 -9.99
2019/06/19 20:42 EDT    1.44   2.09    2  151    2  75.7  76.6 1006.6 11.6  1.007 -99.9 -99.99 -9.99
2019/06/19 20:48 EDT    1.50   2.16    3  165    3  75.7  76.6 1006.7 11.6  1.007 -99.9 -99.99 -9.99
2019/06/19 20:54 EDT    1.55   2.22    3  155    4  75.9  76.8 1006.5 11.5  1.007 -99.9 -99.99 -9.99
2019/06/19 21:00 EDT    1.61   2.29    4  161    4  75.7  77.0 1006.5 11.5  1.007 -99.9 -99.99 -9.99
2019/06/19 21:06 EDT    1.67   2.35    4  173    4  75.9  77.2 1006.5 11.5  1.007 -99.9 -99.99 -9.99
2019/06/19 21:12 EDT    1.73   2.42    4  168    4  75.7  77.2 1006.6 11.5  1.007 -99.9 -99.99 -9.99
2019/06/19 21:18 EDT    1.79   2.47    3  154    4  75.9  77.0 1006.7 11.4  1.007 -99.9 -99.99 -9.99
2019/06/19 21:24 EDT    1.84   2.54    4  152    5  75.9  77.0 1006.6 11.4  1.006 -99.9 -99.99 -9.99
2019/06/19 21:30 EDT    1.90   2.60    4  164    5  75.9  76.8 1006.5 11.4  1.006 -99.9 -99.99 -9.99
2019/06/19 21:36 EDT    1.95   2.65    4  157    5  76.1  76.8 1006.4 11.3  1.006 -99.9 -99.99 -9.99
2019/06/19 21:42 EDT    2.01   2.70    5  162    6  75.9  76.8 1006.4 11.3  1.006 -99.9 -99.99 -9.99
2019/06/19 21:48 EDT    2.06   2.75    6  160    7  75.9  76.8 1006.4 11.3  1.006 -99.9 -99.99 -9.99
2019/06/19 21:54 EDT    2.11   2.80    6  157    8  75.9  76.8 1006.5 11.2  1.006 -99.9 -99.99 -9.99
2019/06/19 22:00 EDT    2.16   2.85    5  173    7  75.9  76.3 1006.6 11.4  1.007 -99.9 -99.99 -9.99
2019/06/19 22:06 EDT    2.21   2.91    5  179    7  75.9  76.3 1006.6 11.4  1.007 -99.9 -99.99 -9.99
2019/06/19 22:12 EDT    2.26   2.95    6  186    8  75.9  76.1 1006.7 11.5  1.007 -99.9 -99.99 -9.99
2019/06/19 22:18 EDT    2.30   2.99    7  192    9  76.1  76.1 1006.6 11.5  1.007 -99.9 -99.99 -9.99
2019/06/19 22:24 EDT    2.35   3.03    8  198   10  76.3  76.1 1006.5 11.6  1.007 -99.9 -99.99 -9.99
2019/06/19 22:30 EDT    2.39   3.07    9  191   13  76.5  75.9 1006.5 11.6  1.007 -99.9 -99.99 -9.99
2019/06/19 22:36 EDT    2.42   3.12    8  191   10  76.5  75.9 1006.6 11.7  1.007 -99.9 -99.99 -9.99
2019/06/19 22:42 EDT    2.46   3.15   10  193   12  76.3  76.1 1006.5 11.7  1.007 -99.9 -99.99 -9.99
2019/06/19 22:48 EDT    2.49   3.18    8  193   13  76.1  76.3 1006.4 11.6  1.007 -99.9 -99.99 -9.99
2019/06/19 22:54 EDT    2.52   3.20    7  197   12  75.9  76.5 1006.5 11.6  1.007 -99.9 -99.99 -9.99
2019/06/19 23:00 EDT    2.55   3.22    7  198   11  75.7  76.5 1006.4 11.6  1.007 -99.9 -99.99 -9.99
2019/06/19 23:06 EDT    2.57   3.25    6  198   10  75.6  76.3 1006.3 11.7  1.007 -99.9 -99.99 -9.99
2019/06/19 23:12 EDT    2.59   3.26    8  198   11  75.6  76.5 1006.2 11.6  1.007 -99.9 -99.99 -9.99
2019/06/19 23:18 EDT    2.61   3.27    7  196   10  75.4  76.5 1006.1 11.6  1.007 -99.9 -99.99 -9.99
2019/06/19 23:24 EDT    2.62   3.28    8  194   10  75.2  76.5 1006.0 11.6  1.007 -99.9 -99.99 -9.99
2019/06/19 23:30 EDT    2.63   3.27    7  201   11  75.2  76.5 1006.0 11.6  1.007 -99.9 -99.99 -9.99
2019/06/19 23:36 EDT    2.64   3.27    8  198   11  75.2  76.5 1005.9 11.7  1.007 -99.9 -99.99 -9.99
2019/06/19 23:42 EDT    2.64   3.27    7  201   10  75.0  76.3 1005.9 11.7  1.007 -99.9 -99.99 -9.99
2019/06/19 23:48 EDT    2.65   3.26    9  195   10  75.0  76.1 1005.8 11.8  1.007 -99.9 -99.99 -9.99
2019/06/19 23:54 EDT    2.64   3.26    8  190   10  75.0  76.1 1005.9 11.8  1.007 -99.9 -99.99 -9.99
2019/06/20 00:00 EDT    2.64   3.25    7  191   10  74.8  75.9 1005.9 11.8  1.007 -99.9 -99.99 -9.99
2019/06/20 00:06 EDT    2.63   3.24    7  193   10  74.8  75.9 1005.9 11.8  1.007 -99.9 -99.99 -9.99
2019/06/20 00:12 EDT    2.62   3.23    8  198   11  74.8  75.9 1006.0 11.8  1.007 -99.9 -99.99 -9.99
2019/06/20 00:18 EDT    2.61   3.22    7  195   11  74.8  75.9 1006.0 11.8  1.007 -99.9 -99.99 -9.99
2019/06/20 00:24 EDT    2.59   3.20    6  197   12  74.8  75.9 1006.0 11.8  1.007 -99.9 -99.99 -9.99
2019/06/20 00:30 EDT    2.57   3.18    7  199   10  74.8  75.7 1006.0 11.8  1.007 -99.9 -99.99 -9.99
2019/06/20 00:36 EDT    2.55   3.16    7  195    9  74.8  75.7 1006.0 11.8  1.007 -99.9 -99.99 -9.99
2019/06/20 00:42 EDT    2.52   3.14    6  195    9  74.8  75.9 1005.9 11.8  1.007 -99.9 -99.99 -9.99
2019/06/20 00:48 EDT    2.50   3.12    7  206    9  74.8  75.9 1005.8 11.7  1.007 -99.9 -99.99 -9.99
2019/06/20 00:54 EDT    2.47   3.09    7  196   10  74.8  76.1 1005.7 11.7  1.007 -99.9 -99.99 -9.99
2019/06/20 01:00 EDT    2.44   3.07    5  208    9  74.8  76.1 1005.7 11.7  1.007 -99.9 -99.99 -9.99
2019/06/20 01:06 EDT    2.40   3.04    7  202    9  74.8  75.9 1005.7 11.7  1.007 -99.9 -99.99 -9.99
2019/06/20 01:12 EDT    2.36   3.01    8  204    9  75.0  75.9 1005.6 11.7  1.007 -99.9 -99.99 -9.99
2019/06/20 01:18 EDT    2.33   2.98    8  207   11  75.0  76.3 1005.5 11.6  1.007 -99.9 -99.99 -9.99
2019/06/20 01:24 EDT    2.29   2.94    8  210   11  75.0  76.5 1005.5 11.5  1.007 -99.9 -99.99 -9.99
2019/06/20 01:30 EDT    2.24   2.92    7  218   12  75.0  76.5 1005.5 11.5  1.007 -99.9 -99.99 -9.99
2019/06/20 01:36 EDT    2.20   2.89    6  219   10  75.0  76.3 1005.4 11.6  1.007 -99.9 -99.99 -9.99
2019/06/20 01:42 EDT    2.16   2.86    6  215    9  75.0  76.1 1005.4 11.7  1.007 -99.9 -99.99 -9.99
2019/06/20 01:48 EDT    2.11   2.83    6  217    9  75.0  76.1 1005.3 11.6  1.007 -99.9 -99.99 -9.99
2019/06/20 01:54 EDT    2.06   2.79    6  213    7  75.0  76.5 1005.2 11.7  1.007 -99.9 -99.99 -9.99
2019/06/20 02:00 EDT    2.01   2.74    6  205    8  75.0  76.1 1005.3 11.7  1.007 -99.9 -99.99 -9.99
2019/06/20 02:06 EDT    1.96 -99.99 -999 -999 -999 -99.9 -99.9 -999.9 -9.9 -9.999 -99.9 -99.99 -9.99

Revised: 08/08/2018
NOAA / National Ocean Service
Web site owner: Center for Operational Oceanographic Products and Services